<?xml version="1.0" encoding="UTF-8" standalone="no" ?>
<gpx xmlns="http://www.topografix.com/GPX/1/1" xmlns:xsi="http://www.w3.org/2001/XMLSchema-instance" xsi:schemaLocation="http://www.topografix.com/GPX/1/1 http://www.topografix.com/GPX/1/1/gpx.xsd" version="1.1" creator="VisuGPX - https://www.visugpx.com">
  <metadata>
    <name>Tour de l'échine de Praouat</name>
  </metadata>
  <trk>
    <name><![CDATA[Tour de l'échine de Praouat - 14085 - UtagawaVTT.com]]></name>
    <trkseg>
      <trkpt lat="45.07317" lon="6.17466">
        <ele>1559.181519</ele>
        <time>2013-08-10T07:20:41Z</time>
      </trkpt>
      <trkpt lat="45.07325" lon="6.17476">
        <ele>1559.918457</ele>
        <time>2013-08-10T07:21:02Z</time>
      </trkpt>
      <trkpt lat="45.07329" lon="6.17472">
        <ele>1561.603882</ele>
        <time>2013-08-10T07:21:04Z</time>
      </trkpt>
      <trkpt lat="45.07329" lon="6.17461">
        <ele>1563.293945</ele>
        <time>2013-08-10T07:21:07Z</time>
      </trkpt>
      <trkpt lat="45.07311" lon="6.17413">
        <ele>1563.675537</ele>
        <time>2013-08-10T07:21:23Z</time>
      </trkpt>
      <trkpt lat="45.07308" lon="6.17379">
        <ele>1566.560059</ele>
        <time>2013-08-10T07:21:34Z</time>
      </trkpt>
      <trkpt lat="45.07295" lon="6.17322">
        <ele>1566.339966</ele>
        <time>2013-08-10T07:21:51Z</time>
      </trkpt>
      <trkpt lat="45.07296" lon="6.17273">
        <ele>1570.056885</ele>
        <time>2013-08-10T07:22:05Z</time>
      </trkpt>
      <trkpt lat="45.07305" lon="6.17218">
        <ele>1576.217529</ele>
        <time>2013-08-10T07:22:21Z</time>
      </trkpt>
      <trkpt lat="45.07299" lon="6.17109">
        <ele>1581.606201</ele>
        <time>2013-08-10T07:23:01Z</time>
      </trkpt>
      <trkpt lat="45.07292" lon="6.17065">
        <ele>1583.588867</ele>
        <time>2013-08-10T07:23:19Z</time>
      </trkpt>
      <trkpt lat="45.07296" lon="6.16948">
        <ele>1588.037476</ele>
        <time>2013-08-10T07:24:05Z</time>
      </trkpt>
      <trkpt lat="45.07309" lon="6.16921">
        <ele>1589.752319</ele>
        <time>2013-08-10T07:24:18Z</time>
      </trkpt>
      <trkpt lat="45.0737" lon="6.16878">
        <ele>1600.009033</ele>
        <time>2013-08-10T07:24:55Z</time>
      </trkpt>
      <trkpt lat="45.07415" lon="6.16862">
        <ele>1607.910034</ele>
        <time>2013-08-10T07:25:20Z</time>
      </trkpt>
      <trkpt lat="45.07482" lon="6.16816">
        <ele>1614.241699</ele>
        <time>2013-08-10T07:25:59Z</time>
      </trkpt>
      <trkpt lat="45.07494" lon="6.16775">
        <ele>1616.229126</ele>
        <time>2013-08-10T07:26:14Z</time>
      </trkpt>
      <trkpt lat="45.07492" lon="6.16693">
        <ele>1618.894287</ele>
        <time>2013-08-10T07:26:43Z</time>
      </trkpt>
      <trkpt lat="45.07479" lon="6.16652">
        <ele>1616.695801</ele>
        <time>2013-08-10T07:26:59Z</time>
      </trkpt>
      <trkpt lat="45.07474" lon="6.16604">
        <ele>1617.42041</ele>
        <time>2013-08-10T07:27:16Z</time>
      </trkpt>
      <trkpt lat="45.07474" lon="6.16558">
        <ele>1618.920898</ele>
        <time>2013-08-10T07:27:32Z</time>
      </trkpt>
      <trkpt lat="45.07503" lon="6.16451">
        <ele>1614.199341</ele>
        <time>2013-08-10T07:28:16Z</time>
      </trkpt>
      <trkpt lat="45.07527" lon="6.16459">
        <ele>1617.02832</ele>
        <time>2013-08-10T07:28:31Z</time>
      </trkpt>
      <trkpt lat="45.07541" lon="6.16478">
        <ele>1624.124146</ele>
        <time>2013-08-10T07:28:42Z</time>
      </trkpt>
      <trkpt lat="45.07547" lon="6.16508">
        <ele>1636.124634</ele>
        <time>2013-08-10T07:28:57Z</time>
      </trkpt>
      <trkpt lat="45.07538" lon="6.16604">
        <ele>1645.265015</ele>
        <time>2013-08-10T07:29:40Z</time>
      </trkpt>
      <trkpt lat="45.0755" lon="6.16641">
        <ele>1649.908081</ele>
        <time>2013-08-10T07:29:58Z</time>
      </trkpt>
      <trkpt lat="45.07586" lon="6.1671">
        <ele>1659.870483</ele>
        <time>2013-08-10T07:30:34Z</time>
      </trkpt>
      <trkpt lat="45.07597" lon="6.16745">
        <ele>1662.605591</ele>
        <time>2013-08-10T07:30:51Z</time>
      </trkpt>
      <trkpt lat="45.07606" lon="6.16811">
        <ele>1664.418945</ele>
        <time>2013-08-10T07:31:20Z</time>
      </trkpt>
      <trkpt lat="45.0762" lon="6.16855">
        <ele>1673.760254</ele>
        <time>2013-08-10T07:31:41Z</time>
      </trkpt>
      <trkpt lat="45.07614" lon="6.16876">
        <ele>1674.108521</ele>
        <time>2013-08-10T07:31:53Z</time>
      </trkpt>
      <trkpt lat="45.07584" lon="6.16913">
        <ele>1675.359619</ele>
        <time>2013-08-10T07:32:16Z</time>
      </trkpt>
      <trkpt lat="45.07522" lon="6.16974">
        <ele>1676.418091</ele>
        <time>2013-08-10T07:33:00Z</time>
      </trkpt>
      <trkpt lat="45.07515" lon="6.17019">
        <ele>1681.526245</ele>
        <time>2013-08-10T07:33:18Z</time>
      </trkpt>
      <trkpt lat="45.07531" lon="6.17061">
        <ele>1684.276978</ele>
        <time>2013-08-10T07:33:37Z</time>
      </trkpt>
      <trkpt lat="45.0759" lon="6.17165">
        <ele>1695.194946</ele>
        <time>2013-08-10T07:34:31Z</time>
      </trkpt>
      <trkpt lat="45.07616" lon="6.1723">
        <ele>1699.592407</ele>
        <time>2013-08-10T07:35:02Z</time>
      </trkpt>
      <trkpt lat="45.07649" lon="6.17297">
        <ele>1704.9104</ele>
        <time>2013-08-10T07:35:37Z</time>
      </trkpt>
      <trkpt lat="45.07702" lon="6.17384">
        <ele>1711.698975</ele>
        <time>2013-08-10T07:36:26Z</time>
      </trkpt>
      <trkpt lat="45.07765" lon="6.1744">
        <ele>1719.890259</ele>
        <time>2013-08-10T07:37:10Z</time>
      </trkpt>
      <trkpt lat="45.07839" lon="6.1748">
        <ele>1725.486206</ele>
        <time>2013-08-10T07:37:56Z</time>
      </trkpt>
      <trkpt lat="45.07894" lon="6.17491">
        <ele>1728.454468</ele>
        <time>2013-08-10T07:38:28Z</time>
      </trkpt>
      <trkpt lat="45.07905" lon="6.17484">
        <ele>1732.584351</ele>
        <time>2013-08-10T07:38:35Z</time>
      </trkpt>
      <trkpt lat="45.07896" lon="6.17474">
        <ele>1735.411011</ele>
        <time>2013-08-10T07:38:41Z</time>
      </trkpt>
      <trkpt lat="45.07861" lon="6.17467">
        <ele>1733.713989</ele>
        <time>2013-08-10T07:39:01Z</time>
      </trkpt>
      <trkpt lat="45.07813" lon="6.17419">
        <ele>1741.876587</ele>
        <time>2013-08-10T07:39:33Z</time>
      </trkpt>
      <trkpt lat="45.07776" lon="6.1735">
        <ele>1748.753662</ele>
        <time>2013-08-10T07:40:06Z</time>
      </trkpt>
      <trkpt lat="45.07743" lon="6.17272">
        <ele>1749.536255</ele>
        <time>2013-08-10T07:40:43Z</time>
      </trkpt>
      <trkpt lat="45.07748" lon="6.17203">
        <ele>1760.335815</ele>
        <time>2013-08-10T07:41:11Z</time>
      </trkpt>
      <trkpt lat="45.07726" lon="6.17118">
        <ele>1762.881226</ele>
        <time>2013-08-10T07:41:48Z</time>
      </trkpt>
      <trkpt lat="45.07722" lon="6.17088">
        <ele>1765.421509</ele>
        <time>2013-08-10T07:42:01Z</time>
      </trkpt>
      <trkpt lat="45.07733" lon="6.17091">
        <ele>1770.014038</ele>
        <time>2013-08-10T07:42:07Z</time>
      </trkpt>
      <trkpt lat="45.07748" lon="6.17136">
        <ele>1769.543457</ele>
        <time>2013-08-10T07:42:27Z</time>
      </trkpt>
      <trkpt lat="45.07786" lon="6.17203">
        <ele>1776.482422</ele>
        <time>2013-08-10T07:43:01Z</time>
      </trkpt>
      <trkpt lat="45.07792" lon="6.17246">
        <ele>1773.565918</ele>
        <time>2013-08-10T07:43:18Z</time>
      </trkpt>
      <trkpt lat="45.07808" lon="6.17283">
        <ele>1774.416382</ele>
        <time>2013-08-10T07:43:36Z</time>
      </trkpt>
      <trkpt lat="45.07866" lon="6.17335">
        <ele>1781.569336</ele>
        <time>2013-08-10T07:44:17Z</time>
      </trkpt>
      <trkpt lat="45.07983" lon="6.17363">
        <ele>1793.929932</ele>
        <time>2013-08-10T07:45:25Z</time>
      </trkpt>
      <trkpt lat="45.08082" lon="6.17376">
        <ele>1799.590454</ele>
        <time>2013-08-10T07:46:23Z</time>
      </trkpt>
      <trkpt lat="45.08083" lon="6.17363">
        <ele>1805.503784</ele>
        <time>2013-08-10T07:46:28Z</time>
      </trkpt>
      <trkpt lat="45.08042" lon="6.17349">
        <ele>1807.445679</ele>
        <time>2013-08-10T07:46:51Z</time>
      </trkpt>
      <trkpt lat="45.07988" lon="6.17314">
        <ele>1812.720581</ele>
        <time>2013-08-10T07:47:24Z</time>
      </trkpt>
      <trkpt lat="45.07943" lon="6.17265">
        <ele>1818.612915</ele>
        <time>2013-08-10T07:47:54Z</time>
      </trkpt>
      <trkpt lat="45.07924" lon="6.17228">
        <ele>1822.480225</ele>
        <time>2013-08-10T07:48:12Z</time>
      </trkpt>
      <trkpt lat="45.07879" lon="6.17094">
        <ele>1828.642334</ele>
        <time>2013-08-10T07:49:11Z</time>
      </trkpt>
      <trkpt lat="45.07871" lon="6.17084">
        <ele>1825.498291</ele>
        <time>2013-08-10T07:49:17Z</time>
      </trkpt>
      <trkpt lat="45.07873" lon="6.17075">
        <ele>1826.362427</ele>
        <time>2013-08-10T07:49:21Z</time>
      </trkpt>
      <trkpt lat="45.07885" lon="6.1708">
        <ele>1830.13147</ele>
        <time>2013-08-10T07:49:27Z</time>
      </trkpt>
      <trkpt lat="45.07905" lon="6.17115">
        <ele>1833.042969</ele>
        <time>2013-08-10T07:49:45Z</time>
      </trkpt>
      <trkpt lat="45.07952" lon="6.17168">
        <ele>1838.617432</ele>
        <time>2013-08-10T07:50:19Z</time>
      </trkpt>
      <trkpt lat="45.07981" lon="6.17191">
        <ele>1842.29126</ele>
        <time>2013-08-10T07:50:37Z</time>
      </trkpt>
      <trkpt lat="45.08067" lon="6.17241">
        <ele>1851.69458</ele>
        <time>2013-08-10T07:51:30Z</time>
      </trkpt>
      <trkpt lat="45.08119" lon="6.17264">
        <ele>1855.581787</ele>
        <time>2013-08-10T07:52:01Z</time>
      </trkpt>
      <trkpt lat="45.08171" lon="6.17269">
        <ele>1863.564209</ele>
        <time>2013-08-10T07:52:32Z</time>
      </trkpt>
      <trkpt lat="45.08312" lon="6.17364">
        <ele>1872.300171</ele>
        <time>2013-08-10T07:54:03Z</time>
      </trkpt>
      <trkpt lat="45.08391" lon="6.17426">
        <ele>1880.933472</ele>
        <time>2013-08-10T07:54:54Z</time>
      </trkpt>
      <trkpt lat="45.08418" lon="6.17438">
        <ele>1886.730103</ele>
        <time>2013-08-10T07:55:10Z</time>
      </trkpt>
      <trkpt lat="45.08493" lon="6.1751">
        <ele>1897.137939</ele>
        <time>2013-08-10T07:56:01Z</time>
      </trkpt>
      <trkpt lat="45.08572" lon="6.17569">
        <ele>1908.75647</ele>
        <time>2013-08-10T07:56:53Z</time>
      </trkpt>
      <trkpt lat="45.08621" lon="6.17657">
        <ele>1911.708618</ele>
        <time>2013-08-10T07:57:40Z</time>
      </trkpt>
      <trkpt lat="45.08628" lon="6.17659">
        <ele>1913.995361</ele>
        <time>2013-08-10T07:57:44Z</time>
      </trkpt>
      <trkpt lat="45.0863" lon="6.17648">
        <ele>1915.876953</ele>
        <time>2013-08-10T07:57:48Z</time>
      </trkpt>
      <trkpt lat="45.0858" lon="6.17523">
        <ele>1918.415039</ele>
        <time>2013-08-10T07:58:35Z</time>
      </trkpt>
      <trkpt lat="45.0856" lon="6.17491">
        <ele>1917.768066</ele>
        <time>2013-08-10T07:58:49Z</time>
      </trkpt>
      <trkpt lat="45.08529" lon="6.17457">
        <ele>1918.581665</ele>
        <time>2013-08-10T07:59:09Z</time>
      </trkpt>
      <trkpt lat="45.08527" lon="6.1745">
        <ele>1918.486206</ele>
        <time>2013-08-10T07:59:12Z</time>
      </trkpt>
      <trkpt lat="45.08533" lon="6.17443">
        <ele>1919.141113</ele>
        <time>2013-08-10T07:59:16Z</time>
      </trkpt>
      <trkpt lat="45.08574" lon="6.1748">
        <ele>1919.875</ele>
        <time>2013-08-10T07:59:39Z</time>
      </trkpt>
      <trkpt lat="45.08636" lon="6.17517">
        <ele>1927.022461</ele>
        <time>2013-08-10T08:00:14Z</time>
      </trkpt>
      <trkpt lat="45.08654" lon="6.1752">
        <ele>1929.543213</ele>
        <time>2013-08-10T08:00:26Z</time>
      </trkpt>
      <trkpt lat="45.08696" lon="6.1751">
        <ele>1931.072876</ele>
        <time>2013-08-10T08:00:56Z</time>
      </trkpt>
      <trkpt lat="45.08699" lon="6.17505">
        <ele>1930.488281</ele>
        <time>2013-08-10T08:03:21Z</time>
      </trkpt>
      <trkpt lat="45.08724" lon="6.17538">
        <ele>1933.292358</ele>
        <time>2013-08-10T08:05:58Z</time>
      </trkpt>
      <trkpt lat="45.08761" lon="6.17565">
        <ele>1934.737549</ele>
        <time>2013-08-10T08:06:10Z</time>
      </trkpt>
      <trkpt lat="45.08787" lon="6.17593">
        <ele>1937.736206</ele>
        <time>2013-08-10T08:06:15Z</time>
      </trkpt>
      <trkpt lat="45.0884" lon="6.17628">
        <ele>1941.44751</ele>
        <time>2013-08-10T08:06:24Z</time>
      </trkpt>
      <trkpt lat="45.08905" lon="6.1764">
        <ele>1941.827271</ele>
        <time>2013-08-10T08:06:34Z</time>
      </trkpt>
      <trkpt lat="45.08935" lon="6.17651">
        <ele>1945.906982</ele>
        <time>2013-08-10T08:06:39Z</time>
      </trkpt>
      <trkpt lat="45.08973" lon="6.17608">
        <ele>1935.295166</ele>
        <time>2013-08-10T08:06:46Z</time>
      </trkpt>
      <trkpt lat="45.09012" lon="6.1759">
        <ele>1930.621948</ele>
        <time>2013-08-10T08:06:51Z</time>
      </trkpt>
      <trkpt lat="45.09052" lon="6.17594">
        <ele>1927.96875</ele>
        <time>2013-08-10T08:06:56Z</time>
      </trkpt>
      <trkpt lat="45.09126" lon="6.17624">
        <ele>1925.237549</ele>
        <time>2013-08-10T08:07:06Z</time>
      </trkpt>
      <trkpt lat="45.09165" lon="6.17648">
        <ele>1924.150391</ele>
        <time>2013-08-10T08:07:12Z</time>
      </trkpt>
      <trkpt lat="45.0923" lon="6.17699">
        <ele>1923.880005</ele>
        <time>2013-08-10T08:07:23Z</time>
      </trkpt>
      <trkpt lat="45.09314" lon="6.17749">
        <ele>1919.416748</ele>
        <time>2013-08-10T08:07:40Z</time>
      </trkpt>
      <trkpt lat="45.09404" lon="6.17812">
        <ele>1913.900024</ele>
        <time>2013-08-10T08:07:55Z</time>
      </trkpt>
      <trkpt lat="45.09438" lon="6.17842">
        <ele>1911.574951</ele>
        <time>2013-08-10T08:08:01Z</time>
      </trkpt>
      <trkpt lat="45.09496" lon="6.17917">
        <ele>1911.796387</ele>
        <time>2013-08-10T08:08:58Z</time>
      </trkpt>
      <trkpt lat="45.09508" lon="6.17947">
        <ele>1918.335083</ele>
        <time>2013-08-10T08:09:16Z</time>
      </trkpt>
      <trkpt lat="45.09538" lon="6.17953">
        <ele>1907.868286</ele>
        <time>2013-08-10T08:09:40Z</time>
      </trkpt>
      <trkpt lat="45.0958" lon="6.17993">
        <ele>1905.876587</ele>
        <time>2013-08-10T08:09:56Z</time>
      </trkpt>
      <trkpt lat="45.09598" lon="6.18016">
        <ele>1908.141235</ele>
        <time>2013-08-10T08:10:00Z</time>
      </trkpt>
      <trkpt lat="45.09629" lon="6.18026">
        <ele>1902.500488</ele>
        <time>2013-08-10T08:10:05Z</time>
      </trkpt>
      <trkpt lat="45.09652" lon="6.18052">
        <ele>1905.575928</ele>
        <time>2013-08-10T08:10:10Z</time>
      </trkpt>
      <trkpt lat="45.09682" lon="6.18055">
        <ele>1898.698975</ele>
        <time>2013-08-10T08:10:15Z</time>
      </trkpt>
      <trkpt lat="45.09723" lon="6.18087">
        <ele>1902.977905</ele>
        <time>2013-08-10T08:10:22Z</time>
      </trkpt>
      <trkpt lat="45.09748" lon="6.18089">
        <ele>1897.540527</ele>
        <time>2013-08-10T08:10:26Z</time>
      </trkpt>
      <trkpt lat="45.09767" lon="6.18099">
        <ele>1895.201416</ele>
        <time>2013-08-10T08:10:29Z</time>
      </trkpt>
      <trkpt lat="45.09794" lon="6.18125">
        <ele>1895.893799</ele>
        <time>2013-08-10T08:10:34Z</time>
      </trkpt>
      <trkpt lat="45.09801" lon="6.1815">
        <ele>1903.545898</ele>
        <time>2013-08-10T08:10:39Z</time>
      </trkpt>
      <trkpt lat="45.09807" lon="6.18153">
        <ele>1902.760254</ele>
        <time>2013-08-10T08:10:41Z</time>
      </trkpt>
      <trkpt lat="45.09823" lon="6.18145">
        <ele>1895.182373</ele>
        <time>2013-08-10T08:10:45Z</time>
      </trkpt>
      <trkpt lat="45.09837" lon="6.18158">
        <ele>1897.88562</ele>
        <time>2013-08-10T08:10:48Z</time>
      </trkpt>
      <trkpt lat="45.09846" lon="6.18175">
        <ele>1903.657471</ele>
        <time>2013-08-10T08:10:51Z</time>
      </trkpt>
      <trkpt lat="45.09855" lon="6.1818">
        <ele>1903.783203</ele>
        <time>2013-08-10T08:10:53Z</time>
      </trkpt>
      <trkpt lat="45.09876" lon="6.1817">
        <ele>1896.161499</ele>
        <time>2013-08-10T08:10:57Z</time>
      </trkpt>
      <trkpt lat="45.09953" lon="6.18188">
        <ele>1889.69751</ele>
        <time>2013-08-10T08:11:09Z</time>
      </trkpt>
      <trkpt lat="45.09972" lon="6.18204">
        <ele>1892.937134</ele>
        <time>2013-08-10T08:11:13Z</time>
      </trkpt>
      <trkpt lat="45.09986" lon="6.182">
        <ele>1889.792236</ele>
        <time>2013-08-10T08:11:16Z</time>
      </trkpt>
      <trkpt lat="45.10059" lon="6.18213">
        <ele>1887.256226</ele>
        <time>2013-08-10T08:11:31Z</time>
      </trkpt>
      <trkpt lat="45.10126" lon="6.18233">
        <ele>1886.648438</ele>
        <time>2013-08-10T08:11:45Z</time>
      </trkpt>
      <trkpt lat="45.10182" lon="6.18263">
        <ele>1879.97522</ele>
        <time>2013-08-10T08:11:58Z</time>
      </trkpt>
      <trkpt lat="45.10184" lon="6.18309">
        <ele>1892.401123</ele>
        <time>2013-08-10T08:12:06Z</time>
      </trkpt>
      <trkpt lat="45.10188" lon="6.18307">
        <ele>1892.751587</ele>
        <time>2013-08-10T08:12:08Z</time>
      </trkpt>
      <trkpt lat="45.10189" lon="6.18294">
        <ele>1889.915527</ele>
        <time>2013-08-10T08:12:11Z</time>
      </trkpt>
      <trkpt lat="45.10226" lon="6.18248">
        <ele>1880.793579</ele>
        <time>2013-08-10T08:12:23Z</time>
      </trkpt>
      <trkpt lat="45.10258" lon="6.18231">
        <ele>1884.654663</ele>
        <time>2013-08-10T08:12:29Z</time>
      </trkpt>
      <trkpt lat="45.10287" lon="6.18186">
        <ele>1881.375</ele>
        <time>2013-08-10T08:12:43Z</time>
      </trkpt>
      <trkpt lat="45.10325" lon="6.18173">
        <ele>1885.54895</ele>
        <time>2013-08-10T08:12:57Z</time>
      </trkpt>
      <trkpt lat="45.10432" lon="6.18173">
        <ele>1900.957153</ele>
        <time>2013-08-10T08:13:58Z</time>
      </trkpt>
      <trkpt lat="45.10473" lon="6.1818">
        <ele>1906.648071</ele>
        <time>2013-08-10T08:14:30Z</time>
      </trkpt>
      <trkpt lat="45.1057" lon="6.18209">
        <ele>1921.389038</ele>
        <time>2013-08-10T08:15:37Z</time>
      </trkpt>
      <trkpt lat="45.10644" lon="6.18249">
        <ele>1928.581299</ele>
        <time>2013-08-10T08:16:30Z</time>
      </trkpt>
      <trkpt lat="45.10657" lon="6.18263">
        <ele>1927.587524</ele>
        <time>2013-08-10T08:16:41Z</time>
      </trkpt>
      <trkpt lat="45.10648" lon="6.18251">
        <ele>1928.04895</ele>
        <time>2013-08-10T08:16:56Z</time>
      </trkpt>
      <trkpt lat="45.10685" lon="6.18267">
        <ele>1920.889771</ele>
        <time>2013-08-10T08:17:12Z</time>
      </trkpt>
      <trkpt lat="45.10732" lon="6.18325">
        <ele>1903.199951</ele>
        <time>2013-08-10T08:17:26Z</time>
      </trkpt>
      <trkpt lat="45.10753" lon="6.18393">
        <ele>1893.155273</ele>
        <time>2013-08-10T08:17:35Z</time>
      </trkpt>
      <trkpt lat="45.10768" lon="6.18412">
        <ele>1887.265015</ele>
        <time>2013-08-10T08:17:39Z</time>
      </trkpt>
      <trkpt lat="45.10786" lon="6.1845">
        <ele>1881.884521</ele>
        <time>2013-08-10T08:17:47Z</time>
      </trkpt>
      <trkpt lat="45.1086" lon="6.18525">
        <ele>1864.698975</ele>
        <time>2013-08-10T08:18:02Z</time>
      </trkpt>
      <trkpt lat="45.10906" lon="6.18552">
        <ele>1858.445313</ele>
        <time>2013-08-10T08:18:12Z</time>
      </trkpt>
      <trkpt lat="45.10913" lon="6.18563">
        <ele>1859.172241</ele>
        <time>2013-08-10T08:18:14Z</time>
      </trkpt>
      <trkpt lat="45.10918" lon="6.18601">
        <ele>1865.474976</ele>
        <time>2013-08-10T08:18:24Z</time>
      </trkpt>
      <trkpt lat="45.1093" lon="6.186">
        <ele>1865.685059</ele>
        <time>2013-08-10T08:18:31Z</time>
      </trkpt>
      <trkpt lat="45.1096" lon="6.18585">
        <ele>1863.002075</ele>
        <time>2013-08-10T08:18:47Z</time>
      </trkpt>
      <trkpt lat="45.10989" lon="6.18579">
        <ele>1861.621216</ele>
        <time>2013-08-10T08:19:08Z</time>
      </trkpt>
      <trkpt lat="45.11027" lon="6.18588">
        <ele>1855.203857</ele>
        <time>2013-08-10T08:19:35Z</time>
      </trkpt>
      <trkpt lat="45.11054" lon="6.18615">
        <ele>1848.817139</ele>
        <time>2013-08-10T08:19:48Z</time>
      </trkpt>
      <trkpt lat="45.11061" lon="6.18633">
        <ele>1847.958374</ele>
        <time>2013-08-10T08:19:53Z</time>
      </trkpt>
      <trkpt lat="45.11061" lon="6.18669">
        <ele>1852.845459</ele>
        <time>2013-08-10T08:20:00Z</time>
      </trkpt>
      <trkpt lat="45.1107" lon="6.18726">
        <ele>1865.534424</ele>
        <time>2013-08-10T08:20:13Z</time>
      </trkpt>
      <trkpt lat="45.11067" lon="6.18725">
        <ele>1864.415649</ele>
        <time>2013-08-10T08:20:18Z</time>
      </trkpt>
      <trkpt lat="45.11082" lon="6.18703">
        <ele>1862.63623</ele>
        <time>2013-08-10T08:20:24Z</time>
      </trkpt>
      <trkpt lat="45.11085" lon="6.18681">
        <ele>1856.592407</ele>
        <time>2013-08-10T08:20:36Z</time>
      </trkpt>
      <trkpt lat="45.11102" lon="6.18662">
        <ele>1853.451172</ele>
        <time>2013-08-10T08:20:54Z</time>
      </trkpt>
      <trkpt lat="45.11134" lon="6.18655">
        <ele>1854.420044</ele>
        <time>2013-08-10T08:21:22Z</time>
      </trkpt>
      <trkpt lat="45.11155" lon="6.1866">
        <ele>1857.140015</ele>
        <time>2013-08-10T08:21:43Z</time>
      </trkpt>
      <trkpt lat="45.11185" lon="6.18686">
        <ele>1862.877319</ele>
        <time>2013-08-10T08:22:14Z</time>
      </trkpt>
      <trkpt lat="45.11235" lon="6.18743">
        <ele>1875.152832</ele>
        <time>2013-08-10T08:23:05Z</time>
      </trkpt>
      <trkpt lat="45.11269" lon="6.18752">
        <ele>1874.170044</ele>
        <time>2013-08-10T08:23:29Z</time>
      </trkpt>
      <trkpt lat="45.11281" lon="6.18766">
        <ele>1877.52002</ele>
        <time>2013-08-10T08:23:40Z</time>
      </trkpt>
      <trkpt lat="45.1142" lon="6.18826">
        <ele>1872.108765</ele>
        <time>2013-08-10T08:24:48Z</time>
      </trkpt>
      <trkpt lat="45.11416" lon="6.18831">
        <ele>1874.80249</ele>
        <time>2013-08-10T08:25:33Z</time>
      </trkpt>
      <trkpt lat="45.11418" lon="6.18826">
        <ele>1872.568604</ele>
        <time>2013-08-10T08:26:08Z</time>
      </trkpt>
      <trkpt lat="45.11437" lon="6.18834">
        <ele>1869.673706</ele>
        <time>2013-08-10T08:26:19Z</time>
      </trkpt>
      <trkpt lat="45.11514" lon="6.18832">
        <ele>1844.875366</ele>
        <time>2013-08-10T08:26:39Z</time>
      </trkpt>
      <trkpt lat="45.1152" lon="6.18858">
        <ele>1851.911255</ele>
        <time>2013-08-10T08:26:48Z</time>
      </trkpt>
      <trkpt lat="45.1154" lon="6.18878">
        <ele>1851.442383</ele>
        <time>2013-08-10T08:26:59Z</time>
      </trkpt>
      <trkpt lat="45.11558" lon="6.18884">
        <ele>1847.490845</ele>
        <time>2013-08-10T08:27:08Z</time>
      </trkpt>
      <trkpt lat="45.1157" lon="6.18897">
        <ele>1850.549194</ele>
        <time>2013-08-10T08:27:13Z</time>
      </trkpt>
      <trkpt lat="45.1158" lon="6.18902">
        <ele>1850.241089</ele>
        <time>2013-08-10T08:27:16Z</time>
      </trkpt>
      <trkpt lat="45.11597" lon="6.1893">
        <ele>1855.886841</ele>
        <time>2013-08-10T08:27:42Z</time>
      </trkpt>
      <trkpt lat="45.11628" lon="6.18941">
        <ele>1852.471069</ele>
        <time>2013-08-10T08:28:14Z</time>
      </trkpt>
      <trkpt lat="45.11658" lon="6.18967">
        <ele>1853.324219</ele>
        <time>2013-08-10T08:28:52Z</time>
      </trkpt>
      <trkpt lat="45.11666" lon="6.18964">
        <ele>1851.062744</ele>
        <time>2013-08-10T08:29:18Z</time>
      </trkpt>
      <trkpt lat="45.11695" lon="6.18984">
        <ele>1853.159302</ele>
        <time>2013-08-10T08:29:32Z</time>
      </trkpt>
      <trkpt lat="45.11741" lon="6.19005">
        <ele>1852.736938</ele>
        <time>2013-08-10T08:29:54Z</time>
      </trkpt>
      <trkpt lat="45.11772" lon="6.19033">
        <ele>1855.640015</ele>
        <time>2013-08-10T08:30:18Z</time>
      </trkpt>
      <trkpt lat="45.11774" lon="6.19042">
        <ele>1858.577515</ele>
        <time>2013-08-10T08:30:24Z</time>
      </trkpt>
      <trkpt lat="45.11782" lon="6.19042">
        <ele>1856.693481</ele>
        <time>2013-08-10T08:30:44Z</time>
      </trkpt>
      <trkpt lat="45.11816" lon="6.19064">
        <ele>1857.437012</ele>
        <time>2013-08-10T08:31:01Z</time>
      </trkpt>
      <trkpt lat="45.11839" lon="6.19097">
        <ele>1862.821411</ele>
        <time>2013-08-10T08:31:15Z</time>
      </trkpt>
      <trkpt lat="45.11872" lon="6.19108">
        <ele>1859.632446</ele>
        <time>2013-08-10T08:31:29Z</time>
      </trkpt>
      <trkpt lat="45.11929" lon="6.19138">
        <ele>1860.288696</ele>
        <time>2013-08-10T08:32:00Z</time>
      </trkpt>
      <trkpt lat="45.11943" lon="6.19151">
        <ele>1862.635376</ele>
        <time>2013-08-10T08:32:13Z</time>
      </trkpt>
      <trkpt lat="45.11947" lon="6.19161">
        <ele>1865.943359</ele>
        <time>2013-08-10T08:32:18Z</time>
      </trkpt>
      <trkpt lat="45.11954" lon="6.19162">
        <ele>1864.706543</ele>
        <time>2013-08-10T08:32:22Z</time>
      </trkpt>
      <trkpt lat="45.11969" lon="6.19184">
        <ele>1870.285156</ele>
        <time>2013-08-10T08:32:51Z</time>
      </trkpt>
      <trkpt lat="45.1197" lon="6.19179">
        <ele>1868.28833</ele>
        <time>2013-08-10T08:32:58Z</time>
      </trkpt>
      <trkpt lat="45.121" lon="6.19248">
        <ele>1862.987549</ele>
        <time>2013-08-10T08:34:21Z</time>
      </trkpt>
      <trkpt lat="45.12201" lon="6.1934">
        <ele>1854.135864</ele>
        <time>2013-08-10T08:34:56Z</time>
      </trkpt>
      <trkpt lat="45.12234" lon="6.19378">
        <ele>1853.641357</ele>
        <time>2013-08-10T08:35:13Z</time>
      </trkpt>
      <trkpt lat="45.12242" lon="6.19377">
        <ele>1851.61145</ele>
        <time>2013-08-10T08:35:17Z</time>
      </trkpt>
      <trkpt lat="45.12265" lon="6.19396">
        <ele>1850.85144</ele>
        <time>2013-08-10T08:35:31Z</time>
      </trkpt>
      <trkpt lat="45.123" lon="6.19436">
        <ele>1851.359741</ele>
        <time>2013-08-10T08:35:50Z</time>
      </trkpt>
      <trkpt lat="45.12313" lon="6.19458">
        <ele>1854.183716</ele>
        <time>2013-08-10T08:36:06Z</time>
      </trkpt>
      <trkpt lat="45.12325" lon="6.19465">
        <ele>1853.174805</ele>
        <time>2013-08-10T08:36:13Z</time>
      </trkpt>
      <trkpt lat="45.1237" lon="6.19506">
        <ele>1853.489746</ele>
        <time>2013-08-10T08:36:45Z</time>
      </trkpt>
      <trkpt lat="45.12391" lon="6.19534">
        <ele>1855.257202</ele>
        <time>2013-08-10T08:37:00Z</time>
      </trkpt>
      <trkpt lat="45.12402" lon="6.19565">
        <ele>1860.587891</ele>
        <time>2013-08-10T08:37:09Z</time>
      </trkpt>
      <trkpt lat="45.12425" lon="6.19563">
        <ele>1854.505005</ele>
        <time>2013-08-10T08:37:22Z</time>
      </trkpt>
      <trkpt lat="45.1245" lon="6.19578">
        <ele>1851.622803</ele>
        <time>2013-08-10T08:37:37Z</time>
      </trkpt>
      <trkpt lat="45.1247" lon="6.19615">
        <ele>1855.529297</ele>
        <time>2013-08-10T08:37:54Z</time>
      </trkpt>
      <trkpt lat="45.12479" lon="6.19649">
        <ele>1860.423218</ele>
        <time>2013-08-10T08:38:13Z</time>
      </trkpt>
      <trkpt lat="45.12485" lon="6.1965">
        <ele>1858.263428</ele>
        <time>2013-08-10T08:38:26Z</time>
      </trkpt>
      <trkpt lat="45.12533" lon="6.19698">
        <ele>1852.339844</ele>
        <time>2013-08-10T08:38:59Z</time>
      </trkpt>
      <trkpt lat="45.12536" lon="6.19713">
        <ele>1854.630249</ele>
        <time>2013-08-10T08:39:07Z</time>
      </trkpt>
      <trkpt lat="45.12538" lon="6.19691">
        <ele>1849.611084</ele>
        <time>2013-08-10T08:39:15Z</time>
      </trkpt>
      <trkpt lat="45.12541" lon="6.19692">
        <ele>1848.791992</ele>
        <time>2013-08-10T08:39:17Z</time>
      </trkpt>
      <trkpt lat="45.12552" lon="6.19722">
        <ele>1851.923096</ele>
        <time>2013-08-10T08:39:38Z</time>
      </trkpt>
      <trkpt lat="45.12568" lon="6.19728">
        <ele>1850.550293</ele>
        <time>2013-08-10T08:40:14Z</time>
      </trkpt>
      <trkpt lat="45.12572" lon="6.19734">
        <ele>1852.590332</ele>
        <time>2013-08-10T08:40:20Z</time>
      </trkpt>
      <trkpt lat="45.12564" lon="6.19741">
        <ele>1856.912964</ele>
        <time>2013-08-10T08:40:33Z</time>
      </trkpt>
      <trkpt lat="45.1257" lon="6.1974">
        <ele>1855.842041</ele>
        <time>2013-08-10T08:40:50Z</time>
      </trkpt>
      <trkpt lat="45.12601" lon="6.19776">
        <ele>1862.991089</ele>
        <time>2013-08-10T08:41:46Z</time>
      </trkpt>
      <trkpt lat="45.12624" lon="6.19781">
        <ele>1861.179321</ele>
        <time>2013-08-10T08:41:58Z</time>
      </trkpt>
      <trkpt lat="45.12635" lon="6.19797">
        <ele>1865.699463</ele>
        <time>2013-08-10T08:42:06Z</time>
      </trkpt>
      <trkpt lat="45.12658" lon="6.19795">
        <ele>1862.073242</ele>
        <time>2013-08-10T08:42:18Z</time>
      </trkpt>
      <trkpt lat="45.12698" lon="6.19813">
        <ele>1865.790771</ele>
        <time>2013-08-10T08:42:35Z</time>
      </trkpt>
      <trkpt lat="45.12758" lon="6.19823">
        <ele>1866.236084</ele>
        <time>2013-08-10T08:42:54Z</time>
      </trkpt>
      <trkpt lat="45.12776" lon="6.19832">
        <ele>1867.378418</ele>
        <time>2013-08-10T08:43:04Z</time>
      </trkpt>
      <trkpt lat="45.12855" lon="6.1983">
        <ele>1871.133179</ele>
        <time>2013-08-10T08:43:42Z</time>
      </trkpt>
      <trkpt lat="45.12875" lon="6.19838">
        <ele>1872.76001</ele>
        <time>2013-08-10T08:43:57Z</time>
      </trkpt>
      <trkpt lat="45.12896" lon="6.19868">
        <ele>1875.331543</ele>
        <time>2013-08-10T08:44:19Z</time>
      </trkpt>
      <trkpt lat="45.129" lon="6.19881">
        <ele>1876.445068</ele>
        <time>2013-08-10T08:44:27Z</time>
      </trkpt>
      <trkpt lat="45.12906" lon="6.19882">
        <ele>1876.979614</ele>
        <time>2013-08-10T08:44:33Z</time>
      </trkpt>
      <trkpt lat="45.12907" lon="6.19875">
        <ele>1876.697266</ele>
        <time>2013-08-10T08:44:46Z</time>
      </trkpt>
      <trkpt lat="45.12927" lon="6.19875">
        <ele>1877.418335</ele>
        <time>2013-08-10T08:45:15Z</time>
      </trkpt>
      <trkpt lat="45.12958" lon="6.19901">
        <ele>1879.459351</ele>
        <time>2013-08-10T08:45:51Z</time>
      </trkpt>
      <trkpt lat="45.12964" lon="6.19913">
        <ele>1880.255005</ele>
        <time>2013-08-10T08:46:03Z</time>
      </trkpt>
      <trkpt lat="45.13033" lon="6.19952">
        <ele>1882.220581</ele>
        <time>2013-08-10T08:46:59Z</time>
      </trkpt>
      <trkpt lat="45.13057" lon="6.19976">
        <ele>1884.895996</ele>
        <time>2013-08-10T08:47:15Z</time>
      </trkpt>
      <trkpt lat="45.1308" lon="6.1999">
        <ele>1883.932251</ele>
        <time>2013-08-10T08:47:31Z</time>
      </trkpt>
      <trkpt lat="45.13095" lon="6.20009">
        <ele>1884.873901</ele>
        <time>2013-08-10T08:47:42Z</time>
      </trkpt>
      <trkpt lat="45.13108" lon="6.20012">
        <ele>1883.915161</ele>
        <time>2013-08-10T08:47:50Z</time>
      </trkpt>
      <trkpt lat="45.13155" lon="6.2004">
        <ele>1884.821411</ele>
        <time>2013-08-10T08:48:06Z</time>
      </trkpt>
      <trkpt lat="45.13192" lon="6.20055">
        <ele>1880.958252</ele>
        <time>2013-08-10T08:48:17Z</time>
      </trkpt>
      <trkpt lat="45.13215" lon="6.20084">
        <ele>1882.340576</ele>
        <time>2013-08-10T08:48:27Z</time>
      </trkpt>
      <trkpt lat="45.13247" lon="6.2009">
        <ele>1880.699951</ele>
        <time>2013-08-10T08:48:37Z</time>
      </trkpt>
      <trkpt lat="45.13274" lon="6.20113">
        <ele>1881.753174</ele>
        <time>2013-08-10T08:48:48Z</time>
      </trkpt>
      <trkpt lat="45.13298" lon="6.20145">
        <ele>1882.632446</ele>
        <time>2013-08-10T08:48:58Z</time>
      </trkpt>
      <trkpt lat="45.13338" lon="6.20167">
        <ele>1881.495728</ele>
        <time>2013-08-10T08:49:13Z</time>
      </trkpt>
      <trkpt lat="45.13372" lon="6.20208">
        <ele>1881.234375</ele>
        <time>2013-08-10T08:49:29Z</time>
      </trkpt>
      <trkpt lat="45.13411" lon="6.2027">
        <ele>1884.151978</ele>
        <time>2013-08-10T08:49:53Z</time>
      </trkpt>
      <trkpt lat="45.1341" lon="6.20282">
        <ele>1885.557983</ele>
        <time>2013-08-10T08:49:56Z</time>
      </trkpt>
      <trkpt lat="45.13427" lon="6.20282">
        <ele>1883.553833</ele>
        <time>2013-08-10T08:50:05Z</time>
      </trkpt>
      <trkpt lat="45.13447" lon="6.20293">
        <ele>1883.655151</ele>
        <time>2013-08-10T08:50:10Z</time>
      </trkpt>
      <trkpt lat="45.13458" lon="6.20311">
        <ele>1886.827271</ele>
        <time>2013-08-10T08:50:15Z</time>
      </trkpt>
      <trkpt lat="45.13471" lon="6.20306">
        <ele>1884.911011</ele>
        <time>2013-08-10T08:50:21Z</time>
      </trkpt>
      <trkpt lat="45.13562" lon="6.20336">
        <ele>1885.000854</ele>
        <time>2013-08-10T08:51:11Z</time>
      </trkpt>
      <trkpt lat="45.13579" lon="6.20355">
        <ele>1888.212891</ele>
        <time>2013-08-10T08:51:18Z</time>
      </trkpt>
      <trkpt lat="45.1359" lon="6.20345">
        <ele>1884.87439</ele>
        <time>2013-08-10T08:51:24Z</time>
      </trkpt>
      <trkpt lat="45.13701" lon="6.20391">
        <ele>1887.333862</ele>
        <time>2013-08-10T08:52:16Z</time>
      </trkpt>
      <trkpt lat="45.13721" lon="6.20411">
        <ele>1891.210083</ele>
        <time>2013-08-10T08:52:28Z</time>
      </trkpt>
      <trkpt lat="45.13732" lon="6.2043">
        <ele>1895.392944</ele>
        <time>2013-08-10T08:52:38Z</time>
      </trkpt>
      <trkpt lat="45.13743" lon="6.20426">
        <ele>1893.94812</ele>
        <time>2013-08-10T08:52:46Z</time>
      </trkpt>
      <trkpt lat="45.13771" lon="6.20434">
        <ele>1893.98999</ele>
        <time>2013-08-10T08:53:03Z</time>
      </trkpt>
      <trkpt lat="45.13843" lon="6.20407">
        <ele>1886.334839</ele>
        <time>2013-08-10T08:53:25Z</time>
      </trkpt>
      <trkpt lat="45.13864" lon="6.2043">
        <ele>1890.709473</ele>
        <time>2013-08-10T08:53:35Z</time>
      </trkpt>
      <trkpt lat="45.13878" lon="6.20462">
        <ele>1897.2146</ele>
        <time>2013-08-10T08:53:44Z</time>
      </trkpt>
      <trkpt lat="45.13884" lon="6.20464">
        <ele>1897.560425</ele>
        <time>2013-08-10T08:54:08Z</time>
      </trkpt>
      <trkpt lat="45.1388" lon="6.20465">
        <ele>1897.756348</ele>
        <time>2013-08-10T08:54:27Z</time>
      </trkpt>
      <trkpt lat="45.13883" lon="6.20458">
        <ele>1896.150146</ele>
        <time>2013-08-10T08:55:08Z</time>
      </trkpt>
      <trkpt lat="45.13865" lon="6.20458">
        <ele>1896.399658</ele>
        <time>2013-08-10T08:58:10Z</time>
      </trkpt>
      <trkpt lat="45.13871" lon="6.2045">
        <ele>1894.519653</ele>
        <time>2013-08-10T08:59:13Z</time>
      </trkpt>
      <trkpt lat="45.13864" lon="6.20455">
        <ele>1895.836914</ele>
        <time>2013-08-10T08:59:41Z</time>
      </trkpt>
      <trkpt lat="45.13866" lon="6.20453">
        <ele>1895.246338</ele>
        <time>2013-08-10T09:00:16Z</time>
      </trkpt>
      <trkpt lat="45.13862" lon="6.20455">
        <ele>1895.737305</ele>
        <time>2013-08-10T09:01:02Z</time>
      </trkpt>
      <trkpt lat="45.13865" lon="6.20453">
        <ele>1895.334961</ele>
        <time>2013-08-10T09:01:23Z</time>
      </trkpt>
      <trkpt lat="45.1386" lon="6.20452">
        <ele>1895.098022</ele>
        <time>2013-08-10T09:02:17Z</time>
      </trkpt>
      <trkpt lat="45.13871" lon="6.20438">
        <ele>1892.106445</ele>
        <time>2013-08-10T09:02:26Z</time>
      </trkpt>
      <trkpt lat="45.13865" lon="6.2043">
        <ele>1890.767334</ele>
        <time>2013-08-10T09:02:32Z</time>
      </trkpt>
      <trkpt lat="45.13862" lon="6.20397">
        <ele>1885.424805</ele>
        <time>2013-08-10T09:02:50Z</time>
      </trkpt>
      <trkpt lat="45.13876" lon="6.20396">
        <ele>1885.860352</ele>
        <time>2013-08-10T09:03:01Z</time>
      </trkpt>
      <trkpt lat="45.13901" lon="6.20407">
        <ele>1889.418701</ele>
        <time>2013-08-10T09:03:35Z</time>
      </trkpt>
      <trkpt lat="45.13918" lon="6.20397">
        <ele>1889.911743</ele>
        <time>2013-08-10T09:04:02Z</time>
      </trkpt>
      <trkpt lat="45.13957" lon="6.20404">
        <ele>1895.423828</ele>
        <time>2013-08-10T09:04:27Z</time>
      </trkpt>
      <trkpt lat="45.14026" lon="6.20429">
        <ele>1908.109863</ele>
        <time>2013-08-10T09:06:13Z</time>
      </trkpt>
      <trkpt lat="45.14057" lon="6.20425">
        <ele>1914.570435</ele>
        <time>2013-08-10T09:07:10Z</time>
      </trkpt>
      <trkpt lat="45.14063" lon="6.20441">
        <ele>1919.009399</ele>
        <time>2013-08-10T09:07:35Z</time>
      </trkpt>
      <trkpt lat="45.14082" lon="6.20464">
        <ele>1928.172974</ele>
        <time>2013-08-10T09:08:07Z</time>
      </trkpt>
      <trkpt lat="45.141" lon="6.20451">
        <ele>1930.578125</ele>
        <time>2013-08-10T09:08:41Z</time>
      </trkpt>
      <trkpt lat="45.14102" lon="6.20439">
        <ele>1928.55481</ele>
        <time>2013-08-10T09:09:05Z</time>
      </trkpt>
      <trkpt lat="45.14119" lon="6.20436">
        <ele>1931.741089</ele>
        <time>2013-08-10T09:09:46Z</time>
      </trkpt>
      <trkpt lat="45.14135" lon="6.20439">
        <ele>1935.077881</ele>
        <time>2013-08-10T09:10:30Z</time>
      </trkpt>
      <trkpt lat="45.14185" lon="6.2047">
        <ele>1951.369385</ele>
        <time>2013-08-10T09:11:54Z</time>
      </trkpt>
      <trkpt lat="45.14188" lon="6.20477">
        <ele>1953.700073</ele>
        <time>2013-08-10T09:12:21Z</time>
      </trkpt>
      <trkpt lat="45.14251" lon="6.20487">
        <ele>1968.52478</ele>
        <time>2013-08-10T09:14:12Z</time>
      </trkpt>
      <trkpt lat="45.14284" lon="6.20506">
        <ele>1977.177979</ele>
        <time>2013-08-10T09:15:02Z</time>
      </trkpt>
      <trkpt lat="45.14281" lon="6.20514">
        <ele>1979.945068</ele>
        <time>2013-08-10T09:15:16Z</time>
      </trkpt>
      <trkpt lat="45.14248" lon="6.20536">
        <ele>1984.106567</ele>
        <time>2013-08-10T09:15:50Z</time>
      </trkpt>
      <trkpt lat="45.14247" lon="6.20543">
        <ele>1986.480591</ele>
        <time>2013-08-10T09:16:09Z</time>
      </trkpt>
      <trkpt lat="45.14286" lon="6.20552">
        <ele>1993.720459</ele>
        <time>2013-08-10T09:16:59Z</time>
      </trkpt>
      <trkpt lat="45.14263" lon="6.20563">
        <ele>1994.860718</ele>
        <time>2013-08-10T09:17:27Z</time>
      </trkpt>
      <trkpt lat="45.14247" lon="6.2058">
        <ele>1998.873413</ele>
        <time>2013-08-10T09:17:58Z</time>
      </trkpt>
      <trkpt lat="45.14247" lon="6.20587">
        <ele>2001.010986</ele>
        <time>2013-08-10T09:18:07Z</time>
      </trkpt>
      <trkpt lat="45.14281" lon="6.20595">
        <ele>2008.083496</ele>
        <time>2013-08-10T09:19:10Z</time>
      </trkpt>
      <trkpt lat="45.14267" lon="6.20606">
        <ele>2010.536987</ele>
        <time>2013-08-10T09:19:29Z</time>
      </trkpt>
      <trkpt lat="45.1426" lon="6.20618">
        <ele>2014.266235</ele>
        <time>2013-08-10T09:19:58Z</time>
      </trkpt>
      <trkpt lat="45.1428" lon="6.20618">
        <ele>2017.319824</ele>
        <time>2013-08-10T09:20:28Z</time>
      </trkpt>
      <trkpt lat="45.14295" lon="6.20624">
        <ele>2020.889648</ele>
        <time>2013-08-10T09:20:46Z</time>
      </trkpt>
      <trkpt lat="45.14299" lon="6.20631">
        <ele>2023.695801</ele>
        <time>2013-08-10T09:20:58Z</time>
      </trkpt>
      <trkpt lat="45.14271" lon="6.20646">
        <ele>2027.134277</ele>
        <time>2013-08-10T09:21:46Z</time>
      </trkpt>
      <trkpt lat="45.1426" lon="6.20662">
        <ele>2031.05127</ele>
        <time>2013-08-10T09:22:15Z</time>
      </trkpt>
      <trkpt lat="45.14298" lon="6.20666">
        <ele>2038.077026</ele>
        <time>2013-08-10T09:23:03Z</time>
      </trkpt>
      <trkpt lat="45.14355" lon="6.2069">
        <ele>2046.929565</ele>
        <time>2013-08-10T09:24:45Z</time>
      </trkpt>
      <trkpt lat="45.1435" lon="6.20687">
        <ele>2045.845703</ele>
        <time>2013-08-10T09:27:15Z</time>
      </trkpt>
      <trkpt lat="45.14392" lon="6.2072">
        <ele>2056.924072</ele>
        <time>2013-08-10T09:28:27Z</time>
      </trkpt>
      <trkpt lat="45.14441" lon="6.20731">
        <ele>2060.245605</ele>
        <time>2013-08-10T09:29:16Z</time>
      </trkpt>
      <trkpt lat="45.1449" lon="6.20725">
        <ele>2061.485107</ele>
        <time>2013-08-10T09:30:13Z</time>
      </trkpt>
      <trkpt lat="45.1453" lon="6.20714">
        <ele>2061.817383</ele>
        <time>2013-08-10T09:30:41Z</time>
      </trkpt>
      <trkpt lat="45.1455" lon="6.207">
        <ele>2058.706787</ele>
        <time>2013-08-10T09:31:04Z</time>
      </trkpt>
      <trkpt lat="45.14588" lon="6.20695">
        <ele>2060.320068</ele>
        <time>2013-08-10T09:31:16Z</time>
      </trkpt>
      <trkpt lat="45.14604" lon="6.20675">
        <ele>2054.66748</ele>
        <time>2013-08-10T09:31:26Z</time>
      </trkpt>
      <trkpt lat="45.14617" lon="6.20674">
        <ele>2056.149902</ele>
        <time>2013-08-10T09:31:32Z</time>
      </trkpt>
      <trkpt lat="45.14642" lon="6.20661">
        <ele>2054.919922</ele>
        <time>2013-08-10T09:31:44Z</time>
      </trkpt>
      <trkpt lat="45.14681" lon="6.20611">
        <ele>2044.86731</ele>
        <time>2013-08-10T09:31:59Z</time>
      </trkpt>
      <trkpt lat="45.14694" lon="6.20602">
        <ele>2045.192139</ele>
        <time>2013-08-10T09:32:03Z</time>
      </trkpt>
      <trkpt lat="45.14724" lon="6.20602">
        <ele>2053.196045</ele>
        <time>2013-08-10T09:32:28Z</time>
      </trkpt>
      <trkpt lat="45.14732" lon="6.20592">
        <ele>2053.319336</ele>
        <time>2013-08-10T09:32:43Z</time>
      </trkpt>
      <trkpt lat="45.14747" lon="6.20592">
        <ele>2057.774414</ele>
        <time>2013-08-10T09:33:12Z</time>
      </trkpt>
      <trkpt lat="45.14771" lon="6.20576">
        <ele>2061.939941</ele>
        <time>2013-08-10T09:33:41Z</time>
      </trkpt>
      <trkpt lat="45.14788" lon="6.2058">
        <ele>2068.699951</ele>
        <time>2013-08-10T09:34:21Z</time>
      </trkpt>
      <trkpt lat="45.148" lon="6.20559">
        <ele>2068.321777</ele>
        <time>2013-08-10T09:34:43Z</time>
      </trkpt>
      <trkpt lat="45.148" lon="6.20553">
        <ele>2067.328125</ele>
        <time>2013-08-10T09:35:01Z</time>
      </trkpt>
      <trkpt lat="45.14828" lon="6.20512">
        <ele>2072.204102</ele>
        <time>2013-08-10T09:35:49Z</time>
      </trkpt>
      <trkpt lat="45.14832" lon="6.20488">
        <ele>2071.908691</ele>
        <time>2013-08-10T09:36:05Z</time>
      </trkpt>
      <trkpt lat="45.14842" lon="6.20475">
        <ele>2075.060303</ele>
        <time>2013-08-10T09:36:16Z</time>
      </trkpt>
      <trkpt lat="45.14849" lon="6.20453">
        <ele>2075.884033</ele>
        <time>2013-08-10T09:36:39Z</time>
      </trkpt>
      <trkpt lat="45.14861" lon="6.20447">
        <ele>2080.392822</ele>
        <time>2013-08-10T09:37:01Z</time>
      </trkpt>
      <trkpt lat="45.14865" lon="6.20433">
        <ele>2081.235107</ele>
        <time>2013-08-10T09:37:51Z</time>
      </trkpt>
      <trkpt lat="45.14876" lon="6.20423">
        <ele>2086.045654</ele>
        <time>2013-08-10T09:38:19Z</time>
      </trkpt>
      <trkpt lat="45.14872" lon="6.20403">
        <ele>2082.813965</ele>
        <time>2013-08-10T09:38:43Z</time>
      </trkpt>
      <trkpt lat="45.14883" lon="6.20388">
        <ele>2088.537109</ele>
        <time>2013-08-10T09:39:37Z</time>
      </trkpt>
      <trkpt lat="45.14892" lon="6.20403">
        <ele>2093.683838</ele>
        <time>2013-08-10T09:40:21Z</time>
      </trkpt>
      <trkpt lat="45.14902" lon="6.2041">
        <ele>2098.668701</ele>
        <time>2013-08-10T09:40:52Z</time>
      </trkpt>
      <trkpt lat="45.149" lon="6.20404">
        <ele>2097.379883</ele>
        <time>2013-08-10T09:41:17Z</time>
      </trkpt>
      <trkpt lat="45.14904" lon="6.20398">
        <ele>2099.283447</ele>
        <time>2013-08-10T09:41:32Z</time>
      </trkpt>
      <trkpt lat="45.14911" lon="6.204">
        <ele>2102.647949</ele>
        <time>2013-08-10T09:41:57Z</time>
      </trkpt>
      <trkpt lat="45.14918" lon="6.20389">
        <ele>2105.42041</ele>
        <time>2013-08-10T09:42:24Z</time>
      </trkpt>
      <trkpt lat="45.14921" lon="6.20391">
        <ele>2107.4104</ele>
        <time>2013-08-10T09:42:59Z</time>
      </trkpt>
      <trkpt lat="45.14917" lon="6.20387">
        <ele>2105.205078</ele>
        <time>2013-08-10T09:43:54Z</time>
      </trkpt>
      <trkpt lat="45.1492" lon="6.20388">
        <ele>2106.768799</ele>
        <time>2013-08-10T09:45:39Z</time>
      </trkpt>
      <trkpt lat="45.14918" lon="6.20388">
        <ele>2105.385986</ele>
        <time>2013-08-10T09:46:43Z</time>
      </trkpt>
      <trkpt lat="45.14932" lon="6.20396">
        <ele>2112.87915</ele>
        <time>2013-08-10T09:49:19Z</time>
      </trkpt>
      <trkpt lat="45.14919" lon="6.20388">
        <ele>2106.161133</ele>
        <time>2013-08-10T09:50:17Z</time>
      </trkpt>
      <trkpt lat="45.14925" lon="6.20397">
        <ele>2109.618408</ele>
        <time>2013-08-10T09:50:46Z</time>
      </trkpt>
      <trkpt lat="45.1493" lon="6.2039">
        <ele>2111.346436</ele>
        <time>2013-08-10T09:50:59Z</time>
      </trkpt>
      <trkpt lat="45.14946" lon="6.20404">
        <ele>2120.285889</ele>
        <time>2013-08-10T09:51:51Z</time>
      </trkpt>
      <trkpt lat="45.14947" lon="6.20398">
        <ele>2119.843262</ele>
        <time>2013-08-10T09:52:06Z</time>
      </trkpt>
      <trkpt lat="45.14952" lon="6.20397">
        <ele>2122.380859</ele>
        <time>2013-08-10T09:52:20Z</time>
      </trkpt>
      <trkpt lat="45.14965" lon="6.20416">
        <ele>2130.508057</ele>
        <time>2013-08-10T09:52:48Z</time>
      </trkpt>
      <trkpt lat="45.14968" lon="6.20396">
        <ele>2129.943604</ele>
        <time>2013-08-10T09:53:29Z</time>
      </trkpt>
      <trkpt lat="45.14986" lon="6.20409">
        <ele>2139.847412</ele>
        <time>2013-08-10T09:54:10Z</time>
      </trkpt>
      <trkpt lat="45.14987" lon="6.20392">
        <ele>2138.267578</ele>
        <time>2013-08-10T09:54:51Z</time>
      </trkpt>
      <trkpt lat="45.14991" lon="6.2039">
        <ele>2139.718994</ele>
        <time>2013-08-10T09:55:04Z</time>
      </trkpt>
      <trkpt lat="45.15009" lon="6.20404">
        <ele>2150.29248</ele>
        <time>2013-08-10T09:55:51Z</time>
      </trkpt>
      <trkpt lat="45.15015" lon="6.20421">
        <ele>2155.335449</ele>
        <time>2013-08-10T09:56:18Z</time>
      </trkpt>
      <trkpt lat="45.15029" lon="6.20404">
        <ele>2158.140625</ele>
        <time>2013-08-10T09:57:07Z</time>
      </trkpt>
      <trkpt lat="45.15028" lon="6.204">
        <ele>2157.05127</ele>
        <time>2013-08-10T09:57:20Z</time>
      </trkpt>
      <trkpt lat="45.15044" lon="6.20409">
        <ele>2163.654541</ele>
        <time>2013-08-10T09:57:49Z</time>
      </trkpt>
      <trkpt lat="45.15046" lon="6.20395">
        <ele>2161.938232</ele>
        <time>2013-08-10T09:58:14Z</time>
      </trkpt>
      <trkpt lat="45.15093" lon="6.20403">
        <ele>2174.469727</ele>
        <time>2013-08-10T09:59:36Z</time>
      </trkpt>
      <trkpt lat="45.15091" lon="6.20399">
        <ele>2173.259033</ele>
        <time>2013-08-10T09:59:54Z</time>
      </trkpt>
      <trkpt lat="45.15094" lon="6.20408">
        <ele>2175.589844</ele>
        <time>2013-08-10T10:02:14Z</time>
      </trkpt>
      <trkpt lat="45.15088" lon="6.20407">
        <ele>2174.272461</ele>
        <time>2013-08-10T10:03:47Z</time>
      </trkpt>
      <trkpt lat="45.15117" lon="6.20404">
        <ele>2178.386963</ele>
        <time>2013-08-10T10:04:41Z</time>
      </trkpt>
      <trkpt lat="45.1513" lon="6.20395">
        <ele>2177.72583</ele>
        <time>2013-08-10T10:04:54Z</time>
      </trkpt>
      <trkpt lat="45.15187" lon="6.20387">
        <ele>2182.698975</ele>
        <time>2013-08-10T10:06:45Z</time>
      </trkpt>
      <trkpt lat="45.1519" lon="6.20382">
        <ele>2181.68335</ele>
        <time>2013-08-10T10:06:57Z</time>
      </trkpt>
      <trkpt lat="45.15206" lon="6.20385">
        <ele>2186.219971</ele>
        <time>2013-08-10T10:07:29Z</time>
      </trkpt>
      <trkpt lat="45.15232" lon="6.20369">
        <ele>2190.706055</ele>
        <time>2013-08-10T10:08:00Z</time>
      </trkpt>
      <trkpt lat="45.1525" lon="6.20372">
        <ele>2198.139893</ele>
        <time>2013-08-10T10:08:42Z</time>
      </trkpt>
      <trkpt lat="45.15279" lon="6.20338">
        <ele>2203.574951</ele>
        <time>2013-08-10T10:10:05Z</time>
      </trkpt>
      <trkpt lat="45.15318" lon="6.20316">
        <ele>2209.619385</ele>
        <time>2013-08-10T10:12:30Z</time>
      </trkpt>
      <trkpt lat="45.15341" lon="6.20312">
        <ele>2214.573975</ele>
        <time>2013-08-10T10:14:27Z</time>
      </trkpt>
      <trkpt lat="45.15347" lon="6.20303">
        <ele>2214.437012</ele>
        <time>2013-08-10T10:14:49Z</time>
      </trkpt>
      <trkpt lat="45.15364" lon="6.203">
        <ele>2218.536377</ele>
        <time>2013-08-10T10:15:20Z</time>
      </trkpt>
      <trkpt lat="45.15362" lon="6.20294">
        <ele>2216.923096</ele>
        <time>2013-08-10T10:15:56Z</time>
      </trkpt>
      <trkpt lat="45.15361" lon="6.20299">
        <ele>2217.213867</ele>
        <time>2013-08-10T10:16:17Z</time>
      </trkpt>
      <trkpt lat="45.1537" lon="6.20298">
        <ele>2219.799561</ele>
        <time>2013-08-10T10:18:11Z</time>
      </trkpt>
      <trkpt lat="45.15365" lon="6.20296">
        <ele>2217.902588</ele>
        <time>2013-08-10T10:18:58Z</time>
      </trkpt>
      <trkpt lat="45.15392" lon="6.20298">
        <ele>2226.57959</ele>
        <time>2013-08-10T10:19:46Z</time>
      </trkpt>
      <trkpt lat="45.15408" lon="6.20291">
        <ele>2231.440674</ele>
        <time>2013-08-10T10:20:16Z</time>
      </trkpt>
      <trkpt lat="45.15418" lon="6.20279">
        <ele>2235.698975</ele>
        <time>2013-08-10T10:20:33Z</time>
      </trkpt>
      <trkpt lat="45.15422" lon="6.20238">
        <ele>2239.347168</ele>
        <time>2013-08-10T10:21:35Z</time>
      </trkpt>
      <trkpt lat="45.15432" lon="6.20248">
        <ele>2242.134521</ele>
        <time>2013-08-10T10:22:22Z</time>
      </trkpt>
      <trkpt lat="45.15434" lon="6.20233">
        <ele>2243.741699</ele>
        <time>2013-08-10T10:22:37Z</time>
      </trkpt>
      <trkpt lat="45.1544" lon="6.20225">
        <ele>2246.664795</ele>
        <time>2013-08-10T10:22:52Z</time>
      </trkpt>
      <trkpt lat="45.15472" lon="6.2022">
        <ele>2257.957764</ele>
        <time>2013-08-10T10:23:50Z</time>
      </trkpt>
      <trkpt lat="45.15474" lon="6.20214">
        <ele>2259.318848</ele>
        <time>2013-08-10T10:24:00Z</time>
      </trkpt>
      <trkpt lat="45.15455" lon="6.20176">
        <ele>2257.724854</ele>
        <time>2013-08-10T10:25:00Z</time>
      </trkpt>
      <trkpt lat="45.15456" lon="6.20169">
        <ele>2258.858154</ele>
        <time>2013-08-10T10:25:15Z</time>
      </trkpt>
      <trkpt lat="45.15469" lon="6.20165">
        <ele>2263.474121</ele>
        <time>2013-08-10T10:25:40Z</time>
      </trkpt>
      <trkpt lat="45.15464" lon="6.20094">
        <ele>2271.026855</ele>
        <time>2013-08-10T10:26:48Z</time>
      </trkpt>
      <trkpt lat="45.15459" lon="6.20083">
        <ele>2270.851563</ele>
        <time>2013-08-10T10:27:03Z</time>
      </trkpt>
      <trkpt lat="45.15461" lon="6.20084">
        <ele>2271.251709</ele>
        <time>2013-08-10T10:27:28Z</time>
      </trkpt>
      <trkpt lat="45.15448" lon="6.20064">
        <ele>2270.544434</ele>
        <time>2013-08-10T10:28:04Z</time>
      </trkpt>
      <trkpt lat="45.15445" lon="6.20052">
        <ele>2271.417969</ele>
        <time>2013-08-10T10:28:10Z</time>
      </trkpt>
      <trkpt lat="45.15453" lon="6.20018">
        <ele>2277.076172</ele>
        <time>2013-08-10T10:28:27Z</time>
      </trkpt>
      <trkpt lat="45.15483" lon="6.19979">
        <ele>2287.837402</ele>
        <time>2013-08-10T10:29:02Z</time>
      </trkpt>
      <trkpt lat="45.15515" lon="6.19956">
        <ele>2295.863037</ele>
        <time>2013-08-10T10:30:26Z</time>
      </trkpt>
      <trkpt lat="45.15501" lon="6.19935">
        <ele>2294.288818</ele>
        <time>2013-08-10T10:30:52Z</time>
      </trkpt>
      <trkpt lat="45.15492" lon="6.19886">
        <ele>2294.001709</ele>
        <time>2013-08-10T10:32:00Z</time>
      </trkpt>
      <trkpt lat="45.15506" lon="6.19854">
        <ele>2297.5979</ele>
        <time>2013-08-10T10:32:44Z</time>
      </trkpt>
      <trkpt lat="45.15543" lon="6.19832">
        <ele>2305.687012</ele>
        <time>2013-08-10T10:33:23Z</time>
      </trkpt>
      <trkpt lat="45.15597" lon="6.19841">
        <ele>2317.91748</ele>
        <time>2013-08-10T10:34:11Z</time>
      </trkpt>
      <trkpt lat="45.15604" lon="6.19851">
        <ele>2320.98584</ele>
        <time>2013-08-10T10:35:19Z</time>
      </trkpt>
      <trkpt lat="45.15598" lon="6.19852">
        <ele>2319.521484</ele>
        <time>2013-08-10T10:36:34Z</time>
      </trkpt>
      <trkpt lat="45.15601" lon="6.19855">
        <ele>2321.031494</ele>
        <time>2013-08-10T10:36:58Z</time>
      </trkpt>
      <trkpt lat="45.15594" lon="6.19856">
        <ele>2319.077637</ele>
        <time>2013-08-10T10:38:43Z</time>
      </trkpt>
      <trkpt lat="45.15608" lon="6.19842">
        <ele>2320.563721</ele>
        <time>2013-08-10T10:41:19Z</time>
      </trkpt>
      <trkpt lat="45.15604" lon="6.19782">
        <ele>2313.179688</ele>
        <time>2013-08-10T10:41:53Z</time>
      </trkpt>
      <trkpt lat="45.15597" lon="6.19775">
        <ele>2311.939209</ele>
        <time>2013-08-10T10:42:07Z</time>
      </trkpt>
      <trkpt lat="45.15587" lon="6.19731">
        <ele>2310.245361</ele>
        <time>2013-08-10T10:42:57Z</time>
      </trkpt>
      <trkpt lat="45.15555" lon="6.19687">
        <ele>2313.362305</ele>
        <time>2013-08-10T10:43:27Z</time>
      </trkpt>
      <trkpt lat="45.15523" lon="6.19676">
        <ele>2317.988525</ele>
        <time>2013-08-10T10:44:19Z</time>
      </trkpt>
      <trkpt lat="45.15521" lon="6.19668">
        <ele>2319.305664</ele>
        <time>2013-08-10T10:45:07Z</time>
      </trkpt>
      <trkpt lat="45.15483" lon="6.1964">
        <ele>2328.974121</ele>
        <time>2013-08-10T10:46:06Z</time>
      </trkpt>
      <trkpt lat="45.15462" lon="6.19645">
        <ele>2332.1875</ele>
        <time>2013-08-10T10:46:57Z</time>
      </trkpt>
      <trkpt lat="45.15437" lon="6.19631">
        <ele>2339.480469</ele>
        <time>2013-08-10T10:47:57Z</time>
      </trkpt>
      <trkpt lat="45.15402" lon="6.19636">
        <ele>2344.120117</ele>
        <time>2013-08-10T10:48:47Z</time>
      </trkpt>
      <trkpt lat="45.15392" lon="6.19632">
        <ele>2347.122559</ele>
        <time>2013-08-10T10:49:03Z</time>
      </trkpt>
      <trkpt lat="45.15374" lon="6.19639">
        <ele>2348.719971</ele>
        <time>2013-08-10T10:49:21Z</time>
      </trkpt>
      <trkpt lat="45.15356" lon="6.1963">
        <ele>2354.26001</ele>
        <time>2013-08-10T10:50:53Z</time>
      </trkpt>
      <trkpt lat="45.15303" lon="6.19638">
        <ele>2367.726074</ele>
        <time>2013-08-10T10:52:03Z</time>
      </trkpt>
      <trkpt lat="45.15285" lon="6.19649">
        <ele>2371.316406</ele>
        <time>2013-08-10T10:52:30Z</time>
      </trkpt>
      <trkpt lat="45.15275" lon="6.19664">
        <ele>2369.964355</ele>
        <time>2013-08-10T10:52:48Z</time>
      </trkpt>
      <trkpt lat="45.15245" lon="6.19691">
        <ele>2371.567139</ele>
        <time>2013-08-10T10:53:38Z</time>
      </trkpt>
      <trkpt lat="45.15204" lon="6.19709">
        <ele>2378.314453</ele>
        <time>2013-08-10T10:55:24Z</time>
      </trkpt>
      <trkpt lat="45.15184" lon="6.19711">
        <ele>2383.726807</ele>
        <time>2013-08-10T10:56:18Z</time>
      </trkpt>
      <trkpt lat="45.15166" lon="6.19702">
        <ele>2392.961914</ele>
        <time>2013-08-10T10:57:38Z</time>
      </trkpt>
      <trkpt lat="45.1517" lon="6.19692">
        <ele>2397.546143</ele>
        <time>2013-08-10T10:57:58Z</time>
      </trkpt>
      <trkpt lat="45.15166" lon="6.19692">
        <ele>2398.375</ele>
        <time>2013-08-10T10:58:11Z</time>
      </trkpt>
      <trkpt lat="45.15151" lon="6.19673">
        <ele>2411.922119</ele>
        <time>2013-08-10T10:59:19Z</time>
      </trkpt>
      <trkpt lat="45.15128" lon="6.19668">
        <ele>2417.883057</ele>
        <time>2013-08-10T11:00:09Z</time>
      </trkpt>
      <trkpt lat="45.15131" lon="6.19653">
        <ele>2426.300537</ele>
        <time>2013-08-10T11:01:19Z</time>
      </trkpt>
      <trkpt lat="45.15119" lon="6.19651">
        <ele>2425.650879</ele>
        <time>2013-08-10T11:01:53Z</time>
      </trkpt>
      <trkpt lat="45.15128" lon="6.19638">
        <ele>2434.460205</ele>
        <time>2013-08-10T11:02:30Z</time>
      </trkpt>
      <trkpt lat="45.15138" lon="6.19635">
        <ele>2435.243408</ele>
        <time>2013-08-10T11:03:04Z</time>
      </trkpt>
      <trkpt lat="45.15139" lon="6.19626">
        <ele>2439.842285</ele>
        <time>2013-08-10T11:03:38Z</time>
      </trkpt>
      <trkpt lat="45.1514" lon="6.19635">
        <ele>2434.633789</ele>
        <time>2013-08-10T11:04:09Z</time>
      </trkpt>
      <trkpt lat="45.15139" lon="6.19625">
        <ele>2440.079834</ele>
        <time>2013-08-10T11:05:12Z</time>
      </trkpt>
      <trkpt lat="45.1514" lon="6.19633">
        <ele>2435.948486</ele>
        <time>2013-08-10T11:06:23Z</time>
      </trkpt>
      <trkpt lat="45.15138" lon="6.19623">
        <ele>2441.411621</ele>
        <time>2013-08-10T11:07:59Z</time>
      </trkpt>
      <trkpt lat="45.15141" lon="6.19634">
        <ele>2435.189697</ele>
        <time>2013-08-10T11:09:01Z</time>
      </trkpt>
      <trkpt lat="45.1514" lon="6.19626">
        <ele>2439.37207</ele>
        <time>2013-08-10T11:09:35Z</time>
      </trkpt>
      <trkpt lat="45.15136" lon="6.19633">
        <ele>2436.774414</ele>
        <time>2013-08-10T11:10:44Z</time>
      </trkpt>
      <trkpt lat="45.1511" lon="6.19618">
        <ele>2441.888428</ele>
        <time>2013-08-10T11:12:23Z</time>
      </trkpt>
      <trkpt lat="45.15128" lon="6.19599">
        <ele>2454.153809</ele>
        <time>2013-08-10T11:13:23Z</time>
      </trkpt>
      <trkpt lat="45.15111" lon="6.19588">
        <ele>2457.63208</ele>
        <time>2013-08-10T11:14:20Z</time>
      </trkpt>
      <trkpt lat="45.15098" lon="6.1957">
        <ele>2465.427002</ele>
        <time>2013-08-10T11:15:00Z</time>
      </trkpt>
      <trkpt lat="45.15038" lon="6.19547">
        <ele>2465.937988</ele>
        <time>2013-08-10T11:17:31Z</time>
      </trkpt>
      <trkpt lat="45.14969" lon="6.19491">
        <ele>2464.633545</ele>
        <time>2013-08-10T11:17:56Z</time>
      </trkpt>
      <trkpt lat="45.14919" lon="6.19472">
        <ele>2459.35498</ele>
        <time>2013-08-10T11:18:17Z</time>
      </trkpt>
      <trkpt lat="45.14836" lon="6.19425">
        <ele>2459.481934</ele>
        <time>2013-08-10T11:18:38Z</time>
      </trkpt>
      <trkpt lat="45.14768" lon="6.19396">
        <ele>2457.311768</ele>
        <time>2013-08-10T11:18:52Z</time>
      </trkpt>
      <trkpt lat="45.14719" lon="6.19382">
        <ele>2454.794922</ele>
        <time>2013-08-10T11:19:03Z</time>
      </trkpt>
      <trkpt lat="45.14648" lon="6.19373">
        <ele>2447.5</ele>
        <time>2013-08-10T11:19:19Z</time>
      </trkpt>
      <trkpt lat="45.14579" lon="6.19372">
        <ele>2435.804932</ele>
        <time>2013-08-10T11:19:43Z</time>
      </trkpt>
      <trkpt lat="45.14538" lon="6.19355">
        <ele>2430.571045</ele>
        <time>2013-08-10T11:20:41Z</time>
      </trkpt>
      <trkpt lat="45.14519" lon="6.19323">
        <ele>2428.595947</ele>
        <time>2013-08-10T11:20:59Z</time>
      </trkpt>
      <trkpt lat="45.14468" lon="6.19268">
        <ele>2422.782471</ele>
        <time>2013-08-10T11:21:14Z</time>
      </trkpt>
      <trkpt lat="45.14422" lon="6.19203">
        <ele>2415.27124</ele>
        <time>2013-08-10T11:21:25Z</time>
      </trkpt>
      <trkpt lat="45.14405" lon="6.19168">
        <ele>2409.877441</ele>
        <time>2013-08-10T11:21:33Z</time>
      </trkpt>
      <trkpt lat="45.1437" lon="6.19073">
        <ele>2393.92334</ele>
        <time>2013-08-10T11:21:57Z</time>
      </trkpt>
      <trkpt lat="45.14358" lon="6.19052">
        <ele>2390.280762</ele>
        <time>2013-08-10T11:22:01Z</time>
      </trkpt>
      <trkpt lat="45.14295" lon="6.18997">
        <ele>2374.060791</ele>
        <time>2013-08-10T11:22:29Z</time>
      </trkpt>
      <trkpt lat="45.14242" lon="6.18974">
        <ele>2361.920898</ele>
        <time>2013-08-10T11:22:42Z</time>
      </trkpt>
      <trkpt lat="45.14208" lon="6.18953">
        <ele>2354.498535</ele>
        <time>2013-08-10T11:23:03Z</time>
      </trkpt>
      <trkpt lat="45.14188" lon="6.18951">
        <ele>2351.495117</ele>
        <time>2013-08-10T11:23:13Z</time>
      </trkpt>
      <trkpt lat="45.14165" lon="6.18938">
        <ele>2347.148193</ele>
        <time>2013-08-10T11:23:28Z</time>
      </trkpt>
      <trkpt lat="45.14169" lon="6.18934">
        <ele>2347.490723</ele>
        <time>2013-08-10T11:26:34Z</time>
      </trkpt>
      <trkpt lat="45.14153" lon="6.18911">
        <ele>2343.889893</ele>
        <time>2013-08-10T11:26:56Z</time>
      </trkpt>
      <trkpt lat="45.14145" lon="6.18876">
        <ele>2340.148438</ele>
        <time>2013-08-10T11:27:11Z</time>
      </trkpt>
      <trkpt lat="45.14149" lon="6.18846">
        <ele>2338.005371</ele>
        <time>2013-08-10T11:27:41Z</time>
      </trkpt>
      <trkpt lat="45.14148" lon="6.18809">
        <ele>2334.505371</ele>
        <time>2013-08-10T11:28:11Z</time>
      </trkpt>
      <trkpt lat="45.14142" lon="6.18772">
        <ele>2330.78833</ele>
        <time>2013-08-10T11:28:24Z</time>
      </trkpt>
      <trkpt lat="45.14154" lon="6.18756">
        <ele>2332.496094</ele>
        <time>2013-08-10T11:28:33Z</time>
      </trkpt>
      <trkpt lat="45.1417" lon="6.1875">
        <ele>2335.713379</ele>
        <time>2013-08-10T11:28:56Z</time>
      </trkpt>
      <trkpt lat="45.14118" lon="6.1869">
        <ele>2326.948975</ele>
        <time>2013-08-10T11:30:01Z</time>
      </trkpt>
      <trkpt lat="45.14023" lon="6.18653">
        <ele>2305.193115</ele>
        <time>2013-08-10T11:30:53Z</time>
      </trkpt>
      <trkpt lat="45.14001" lon="6.18652">
        <ele>2297.469482</ele>
        <time>2013-08-10T11:31:04Z</time>
      </trkpt>
      <trkpt lat="45.14002" lon="6.18631">
        <ele>2294.723389</ele>
        <time>2013-08-10T11:31:11Z</time>
      </trkpt>
      <trkpt lat="45.14011" lon="6.18612">
        <ele>2296.196045</ele>
        <time>2013-08-10T11:31:28Z</time>
      </trkpt>
      <trkpt lat="45.14007" lon="6.18537">
        <ele>2283.829346</ele>
        <time>2013-08-10T11:31:46Z</time>
      </trkpt>
      <trkpt lat="45.14012" lon="6.18521">
        <ele>2281.501221</ele>
        <time>2013-08-10T11:31:52Z</time>
      </trkpt>
      <trkpt lat="45.14022" lon="6.18509">
        <ele>2281.802002</ele>
        <time>2013-08-10T11:32:14Z</time>
      </trkpt>
      <trkpt lat="45.14021" lon="6.18484">
        <ele>2275.886719</ele>
        <time>2013-08-10T11:32:52Z</time>
      </trkpt>
      <trkpt lat="45.1404" lon="6.18429">
        <ele>2268.503662</ele>
        <time>2013-08-10T11:33:21Z</time>
      </trkpt>
      <trkpt lat="45.14039" lon="6.18424">
        <ele>2266.696533</ele>
        <time>2013-08-10T11:33:25Z</time>
      </trkpt>
      <trkpt lat="45.14048" lon="6.18401">
        <ele>2262.250732</ele>
        <time>2013-08-10T11:33:35Z</time>
      </trkpt>
      <trkpt lat="45.14076" lon="6.18372">
        <ele>2260.253662</ele>
        <time>2013-08-10T11:34:05Z</time>
      </trkpt>
      <trkpt lat="45.14105" lon="6.18277">
        <ele>2245.475586</ele>
        <time>2013-08-10T11:34:43Z</time>
      </trkpt>
      <trkpt lat="45.14112" lon="6.1827">
        <ele>2246.456543</ele>
        <time>2013-08-10T11:34:54Z</time>
      </trkpt>
      <trkpt lat="45.14113" lon="6.18262">
        <ele>2245.28833</ele>
        <time>2013-08-10T11:35:03Z</time>
      </trkpt>
      <trkpt lat="45.14108" lon="6.18253">
        <ele>2241.34082</ele>
        <time>2013-08-10T11:35:08Z</time>
      </trkpt>
      <trkpt lat="45.14116" lon="6.1819">
        <ele>2228.345459</ele>
        <time>2013-08-10T11:35:59Z</time>
      </trkpt>
      <trkpt lat="45.1411" lon="6.18192">
        <ele>2226.502441</ele>
        <time>2013-08-10T11:36:08Z</time>
      </trkpt>
      <trkpt lat="45.14107" lon="6.18177">
        <ele>2221.135254</ele>
        <time>2013-08-10T11:36:20Z</time>
      </trkpt>
      <trkpt lat="45.14102" lon="6.18173">
        <ele>2217.556396</ele>
        <time>2013-08-10T11:36:23Z</time>
      </trkpt>
      <trkpt lat="45.14092" lon="6.18182">
        <ele>2216.874268</ele>
        <time>2013-08-10T11:36:27Z</time>
      </trkpt>
      <trkpt lat="45.1407" lon="6.18192">
        <ele>2210.634033</ele>
        <time>2013-08-10T11:36:40Z</time>
      </trkpt>
      <trkpt lat="45.14055" lon="6.18191">
        <ele>2204.98999</ele>
        <time>2013-08-10T11:36:51Z</time>
      </trkpt>
      <trkpt lat="45.1404" lon="6.182">
        <ele>2200.307617</ele>
        <time>2013-08-10T11:36:57Z</time>
      </trkpt>
      <trkpt lat="45.14036" lon="6.18207">
        <ele>2200.185059</ele>
        <time>2013-08-10T11:37:06Z</time>
      </trkpt>
      <trkpt lat="45.14018" lon="6.18212">
        <ele>2193.512451</ele>
        <time>2013-08-10T11:37:35Z</time>
      </trkpt>
      <trkpt lat="45.14014" lon="6.18207">
        <ele>2190.91748</ele>
        <time>2013-08-10T11:37:38Z</time>
      </trkpt>
      <trkpt lat="45.1399" lon="6.18219">
        <ele>2184.507568</ele>
        <time>2013-08-10T11:37:51Z</time>
      </trkpt>
      <trkpt lat="45.13991" lon="6.18206">
        <ele>2181.810059</ele>
        <time>2013-08-10T11:37:57Z</time>
      </trkpt>
      <trkpt lat="45.13984" lon="6.18197">
        <ele>2176.77002</ele>
        <time>2013-08-10T11:38:04Z</time>
      </trkpt>
      <trkpt lat="45.13972" lon="6.18209">
        <ele>2174.907471</ele>
        <time>2013-08-10T11:38:12Z</time>
      </trkpt>
      <trkpt lat="45.13963" lon="6.18193">
        <ele>2168.18335</ele>
        <time>2013-08-10T11:38:20Z</time>
      </trkpt>
      <trkpt lat="45.13975" lon="6.18121">
        <ele>2161.832031</ele>
        <time>2013-08-10T11:39:28Z</time>
      </trkpt>
      <trkpt lat="45.13973" lon="6.18124">
        <ele>2161.48584</ele>
        <time>2013-08-10T11:40:20Z</time>
      </trkpt>
      <trkpt lat="45.13981" lon="6.18124">
        <ele>2163.779297</ele>
        <time>2013-08-10T11:41:10Z</time>
      </trkpt>
      <trkpt lat="45.13977" lon="6.18125">
        <ele>2162.63208</ele>
        <time>2013-08-10T11:45:36Z</time>
      </trkpt>
      <trkpt lat="45.13986" lon="6.18124">
        <ele>2165.367432</ele>
        <time>2013-08-10T11:46:54Z</time>
      </trkpt>
      <trkpt lat="45.13976" lon="6.1812">
        <ele>2162.217529</ele>
        <time>2013-08-10T11:49:02Z</time>
      </trkpt>
      <trkpt lat="45.13978" lon="6.18126">
        <ele>2163.167236</ele>
        <time>2013-08-10T11:51:58Z</time>
      </trkpt>
      <trkpt lat="45.13976" lon="6.18121">
        <ele>2162.073486</ele>
        <time>2013-08-10T11:52:45Z</time>
      </trkpt>
      <trkpt lat="45.13979" lon="6.18117">
        <ele>2162.875</ele>
        <time>2013-08-10T11:53:33Z</time>
      </trkpt>
      <trkpt lat="45.13976" lon="6.18121">
        <ele>2162.249023</ele>
        <time>2013-08-10T11:54:00Z</time>
      </trkpt>
      <trkpt lat="45.1398" lon="6.18125">
        <ele>2163.723877</ele>
        <time>2013-08-10T11:54:21Z</time>
      </trkpt>
      <trkpt lat="45.13978" lon="6.18119">
        <ele>2162.755127</ele>
        <time>2013-08-10T11:54:59Z</time>
      </trkpt>
      <trkpt lat="45.13978" lon="6.18124">
        <ele>2163.095703</ele>
        <time>2013-08-10T11:56:28Z</time>
      </trkpt>
      <trkpt lat="45.13971" lon="6.18121">
        <ele>2160.788086</ele>
        <time>2013-08-10T11:57:02Z</time>
      </trkpt>
      <trkpt lat="45.1396" lon="6.18132">
        <ele>2157.568359</ele>
        <time>2013-08-10T11:57:36Z</time>
      </trkpt>
      <trkpt lat="45.13929" lon="6.18138">
        <ele>2148.037598</ele>
        <time>2013-08-10T11:57:52Z</time>
      </trkpt>
      <trkpt lat="45.13917" lon="6.18146">
        <ele>2144.60498</ele>
        <time>2013-08-10T11:58:00Z</time>
      </trkpt>
      <trkpt lat="45.13904" lon="6.18144">
        <ele>2140.415039</ele>
        <time>2013-08-10T11:58:06Z</time>
      </trkpt>
      <trkpt lat="45.13898" lon="6.1815">
        <ele>2138.92749</ele>
        <time>2013-08-10T11:58:09Z</time>
      </trkpt>
      <trkpt lat="45.13879" lon="6.18156">
        <ele>2133.594727</ele>
        <time>2013-08-10T11:58:18Z</time>
      </trkpt>
      <trkpt lat="45.13876" lon="6.18165">
        <ele>2134.899902</ele>
        <time>2013-08-10T11:58:33Z</time>
      </trkpt>
      <trkpt lat="45.1383" lon="6.1818">
        <ele>2122.71167</ele>
        <time>2013-08-10T11:59:23Z</time>
      </trkpt>
      <trkpt lat="45.1376" lon="6.18216">
        <ele>2106.851563</ele>
        <time>2013-08-10T11:59:52Z</time>
      </trkpt>
      <trkpt lat="45.13705" lon="6.18231">
        <ele>2092.350098</ele>
        <time>2013-08-10T12:00:22Z</time>
      </trkpt>
      <trkpt lat="45.13667" lon="6.18256">
        <ele>2089.747803</ele>
        <time>2013-08-10T12:00:51Z</time>
      </trkpt>
      <trkpt lat="45.13668" lon="6.18245">
        <ele>2087.163818</ele>
        <time>2013-08-10T12:00:59Z</time>
      </trkpt>
      <trkpt lat="45.13664" lon="6.18235">
        <ele>2083.860596</ele>
        <time>2013-08-10T12:01:03Z</time>
      </trkpt>
      <trkpt lat="45.13667" lon="6.18201">
        <ele>2075.979004</ele>
        <time>2013-08-10T12:01:15Z</time>
      </trkpt>
      <trkpt lat="45.13652" lon="6.18205">
        <ele>2073.960205</ele>
        <time>2013-08-10T12:01:26Z</time>
      </trkpt>
      <trkpt lat="45.13654" lon="6.18192">
        <ele>2071.933594</ele>
        <time>2013-08-10T12:01:31Z</time>
      </trkpt>
      <trkpt lat="45.13641" lon="6.18179">
        <ele>2068.135986</ele>
        <time>2013-08-10T12:01:37Z</time>
      </trkpt>
      <trkpt lat="45.1364" lon="6.18192">
        <ele>2069.85498</ele>
        <time>2013-08-10T12:01:52Z</time>
      </trkpt>
      <trkpt lat="45.13618" lon="6.18174">
        <ele>2064.051514</ele>
        <time>2013-08-10T12:02:08Z</time>
      </trkpt>
      <trkpt lat="45.13611" lon="6.18153">
        <ele>2059.057617</ele>
        <time>2013-08-10T12:02:15Z</time>
      </trkpt>
      <trkpt lat="45.13567" lon="6.18144">
        <ele>2052.352539</ele>
        <time>2013-08-10T12:02:30Z</time>
      </trkpt>
      <trkpt lat="45.13541" lon="6.18122">
        <ele>2046.415039</ele>
        <time>2013-08-10T12:02:40Z</time>
      </trkpt>
      <trkpt lat="45.13532" lon="6.18103">
        <ele>2042.953735</ele>
        <time>2013-08-10T12:02:47Z</time>
      </trkpt>
      <trkpt lat="45.13511" lon="6.18083">
        <ele>2038.897339</ele>
        <time>2013-08-10T12:03:05Z</time>
      </trkpt>
      <trkpt lat="45.13515" lon="6.18094">
        <ele>2040.854492</ele>
        <time>2013-08-10T12:03:11Z</time>
      </trkpt>
      <trkpt lat="45.13511" lon="6.18081">
        <ele>2038.469238</ele>
        <time>2013-08-10T12:03:15Z</time>
      </trkpt>
      <trkpt lat="45.13494" lon="6.18069">
        <ele>2036.371826</ele>
        <time>2013-08-10T12:03:20Z</time>
      </trkpt>
      <trkpt lat="45.13483" lon="6.18048">
        <ele>2034.305542</ele>
        <time>2013-08-10T12:03:24Z</time>
      </trkpt>
      <trkpt lat="45.13475" lon="6.17997">
        <ele>2030.970337</ele>
        <time>2013-08-10T12:03:32Z</time>
      </trkpt>
      <trkpt lat="45.13505" lon="6.1799">
        <ele>2032.224976</ele>
        <time>2013-08-10T12:04:30Z</time>
      </trkpt>
      <trkpt lat="45.13544" lon="6.17929">
        <ele>2034.644165</ele>
        <time>2013-08-10T12:05:38Z</time>
      </trkpt>
      <trkpt lat="45.13541" lon="6.17919">
        <ele>2034.838989</ele>
        <time>2013-08-10T12:05:49Z</time>
      </trkpt>
      <trkpt lat="45.13515" lon="6.17926">
        <ele>2032.961914</ele>
        <time>2013-08-10T12:06:05Z</time>
      </trkpt>
      <trkpt lat="45.13484" lon="6.17946">
        <ele>2031.219971</ele>
        <time>2013-08-10T12:06:35Z</time>
      </trkpt>
      <trkpt lat="45.13462" lon="6.17943">
        <ele>2029.952393</ele>
        <time>2013-08-10T12:06:57Z</time>
      </trkpt>
      <trkpt lat="45.13402" lon="6.17912">
        <ele>2025.099976</ele>
        <time>2013-08-10T12:07:22Z</time>
      </trkpt>
      <trkpt lat="45.13398" lon="6.17904">
        <ele>2024.719971</ele>
        <time>2013-08-10T12:07:27Z</time>
      </trkpt>
      <trkpt lat="45.13358" lon="6.17912">
        <ele>2020.654663</ele>
        <time>2013-08-10T12:07:41Z</time>
      </trkpt>
      <trkpt lat="45.13348" lon="6.17891">
        <ele>2019.794189</ele>
        <time>2013-08-10T12:07:51Z</time>
      </trkpt>
      <trkpt lat="45.13348" lon="6.17883">
        <ele>2019.854248</ele>
        <time>2013-08-10T12:07:55Z</time>
      </trkpt>
      <trkpt lat="45.13327" lon="6.17875">
        <ele>2018.113037</ele>
        <time>2013-08-10T12:08:06Z</time>
      </trkpt>
      <trkpt lat="45.13318" lon="6.17881">
        <ele>2017.091309</ele>
        <time>2013-08-10T12:08:11Z</time>
      </trkpt>
      <trkpt lat="45.13303" lon="6.17872">
        <ele>2016.228027</ele>
        <time>2013-08-10T12:08:35Z</time>
      </trkpt>
      <trkpt lat="45.13295" lon="6.17878">
        <ele>2015.457275</ele>
        <time>2013-08-10T12:08:44Z</time>
      </trkpt>
      <trkpt lat="45.13274" lon="6.17876">
        <ele>2014.885986</ele>
        <time>2013-08-10T12:09:06Z</time>
      </trkpt>
      <trkpt lat="45.13279" lon="6.17884">
        <ele>2014.518799</ele>
        <time>2013-08-10T12:09:41Z</time>
      </trkpt>
      <trkpt lat="45.13276" lon="6.17901">
        <ele>2013.177124</ele>
        <time>2013-08-10T12:10:33Z</time>
      </trkpt>
      <trkpt lat="45.13281" lon="6.17895">
        <ele>2013.800171</ele>
        <time>2013-08-10T12:10:57Z</time>
      </trkpt>
      <trkpt lat="45.13274" lon="6.17901">
        <ele>2013.106689</ele>
        <time>2013-08-10T12:11:39Z</time>
      </trkpt>
      <trkpt lat="45.13279" lon="6.17896">
        <ele>2013.672607</ele>
        <time>2013-08-10T12:12:02Z</time>
      </trkpt>
      <trkpt lat="45.13277" lon="6.17902">
        <ele>2013.163452</ele>
        <time>2013-08-10T12:12:58Z</time>
      </trkpt>
      <trkpt lat="45.13278" lon="6.17869">
        <ele>2015.557251</ele>
        <time>2013-08-10T12:13:22Z</time>
      </trkpt>
      <trkpt lat="45.13262" lon="6.17857">
        <ele>2015.910034</ele>
        <time>2013-08-10T12:13:43Z</time>
      </trkpt>
      <trkpt lat="45.1325" lon="6.17868">
        <ele>2014.768921</ele>
        <time>2013-08-10T12:14:02Z</time>
      </trkpt>
      <trkpt lat="45.13248" lon="6.17884">
        <ele>2013.411377</ele>
        <time>2013-08-10T12:14:15Z</time>
      </trkpt>
      <trkpt lat="45.13231" lon="6.17892">
        <ele>2012.248657</ele>
        <time>2013-08-10T12:14:36Z</time>
      </trkpt>
      <trkpt lat="45.13176" lon="6.17892">
        <ele>2008.856323</ele>
        <time>2013-08-10T12:15:14Z</time>
      </trkpt>
      <trkpt lat="45.13172" lon="6.17888">
        <ele>2009.186157</ele>
        <time>2013-08-10T12:15:20Z</time>
      </trkpt>
      <trkpt lat="45.13116" lon="6.179">
        <ele>2001.795898</ele>
        <time>2013-08-10T12:15:54Z</time>
      </trkpt>
      <trkpt lat="45.13115" lon="6.17907">
        <ele>1999.860596</ele>
        <time>2013-08-10T12:16:05Z</time>
      </trkpt>
      <trkpt lat="45.13098" lon="6.17894">
        <ele>2002.071655</ele>
        <time>2013-08-10T12:16:31Z</time>
      </trkpt>
      <trkpt lat="45.13016" lon="6.17883">
        <ele>1998.025024</ele>
        <time>2013-08-10T12:17:06Z</time>
      </trkpt>
      <trkpt lat="45.12983" lon="6.17885">
        <ele>1995.136719</ele>
        <time>2013-08-10T12:17:15Z</time>
      </trkpt>
      <trkpt lat="45.1294" lon="6.17875">
        <ele>1994.66687</ele>
        <time>2013-08-10T12:17:24Z</time>
      </trkpt>
      <trkpt lat="45.12873" lon="6.17849">
        <ele>1996.347046</ele>
        <time>2013-08-10T12:17:40Z</time>
      </trkpt>
      <trkpt lat="45.12829" lon="6.17809">
        <ele>1997.846924</ele>
        <time>2013-08-10T12:17:50Z</time>
      </trkpt>
      <trkpt lat="45.12795" lon="6.17787">
        <ele>1997.001221</ele>
        <time>2013-08-10T12:17:58Z</time>
      </trkpt>
      <trkpt lat="45.12775" lon="6.17786">
        <ele>1995.431274</ele>
        <time>2013-08-10T12:18:02Z</time>
      </trkpt>
      <trkpt lat="45.12767" lon="6.1778">
        <ele>1994.89856</ele>
        <time>2013-08-10T12:18:05Z</time>
      </trkpt>
      <trkpt lat="45.12755" lon="6.17753">
        <ele>1993.757324</ele>
        <time>2013-08-10T12:18:11Z</time>
      </trkpt>
      <trkpt lat="45.12693" lon="6.17694">
        <ele>1989.58252</ele>
        <time>2013-08-10T12:18:34Z</time>
      </trkpt>
      <trkpt lat="45.1266" lon="6.17693">
        <ele>1984.432373</ele>
        <time>2013-08-10T12:18:44Z</time>
      </trkpt>
      <trkpt lat="45.12621" lon="6.17668">
        <ele>1980.27771</ele>
        <time>2013-08-10T12:19:00Z</time>
      </trkpt>
      <trkpt lat="45.12598" lon="6.17647">
        <ele>1977.838745</ele>
        <time>2013-08-10T12:19:10Z</time>
      </trkpt>
      <trkpt lat="45.12601" lon="6.17647">
        <ele>1978.907349</ele>
        <time>2013-08-10T12:19:17Z</time>
      </trkpt>
      <trkpt lat="45.1259" lon="6.17648">
        <ele>1975.464111</ele>
        <time>2013-08-10T12:19:35Z</time>
      </trkpt>
      <trkpt lat="45.12578" lon="6.17642">
        <ele>1973.778809</ele>
        <time>2013-08-10T12:19:41Z</time>
      </trkpt>
      <trkpt lat="45.12553" lon="6.17586">
        <ele>1980.195313</ele>
        <time>2013-08-10T12:20:06Z</time>
      </trkpt>
      <trkpt lat="45.12485" lon="6.17595">
        <ele>1975.49585</ele>
        <time>2013-08-10T12:20:46Z</time>
      </trkpt>
      <trkpt lat="45.12455" lon="6.17617">
        <ele>1971.191895</ele>
        <time>2013-08-10T12:20:57Z</time>
      </trkpt>
      <trkpt lat="45.1241" lon="6.17626">
        <ele>1968.702881</ele>
        <time>2013-08-10T12:21:18Z</time>
      </trkpt>
      <trkpt lat="45.12402" lon="6.17622">
        <ele>1969.554199</ele>
        <time>2013-08-10T12:21:23Z</time>
      </trkpt>
      <trkpt lat="45.12378" lon="6.17626">
        <ele>1968.506836</ele>
        <time>2013-08-10T12:21:50Z</time>
      </trkpt>
      <trkpt lat="45.12313" lon="6.17611">
        <ele>1971.543457</ele>
        <time>2013-08-10T12:22:20Z</time>
      </trkpt>
      <trkpt lat="45.12266" lon="6.17593">
        <ele>1973.263428</ele>
        <time>2013-08-10T12:22:32Z</time>
      </trkpt>
      <trkpt lat="45.12228" lon="6.17568">
        <ele>1973.413208</ele>
        <time>2013-08-10T12:22:45Z</time>
      </trkpt>
      <trkpt lat="45.1221" lon="6.17563">
        <ele>1971.678833</ele>
        <time>2013-08-10T12:22:49Z</time>
      </trkpt>
      <trkpt lat="45.12153" lon="6.17514">
        <ele>1969.71106</ele>
        <time>2013-08-10T12:23:09Z</time>
      </trkpt>
      <trkpt lat="45.12159" lon="6.17515">
        <ele>1970.760376</ele>
        <time>2013-08-10T12:23:38Z</time>
      </trkpt>
      <trkpt lat="45.12157" lon="6.17518">
        <ele>1969.851563</ele>
        <time>2013-08-10T12:25:12Z</time>
      </trkpt>
      <trkpt lat="45.12161" lon="6.17517">
        <ele>1971.015503</ele>
        <time>2013-08-10T12:26:16Z</time>
      </trkpt>
      <trkpt lat="45.12147" lon="6.17507">
        <ele>1969.473755</ele>
        <time>2013-08-10T12:27:11Z</time>
      </trkpt>
      <trkpt lat="45.121" lon="6.17449">
        <ele>1954.939087</ele>
        <time>2013-08-10T12:27:34Z</time>
      </trkpt>
      <trkpt lat="45.12082" lon="6.17415">
        <ele>1950.483521</ele>
        <time>2013-08-10T12:27:44Z</time>
      </trkpt>
      <trkpt lat="45.12058" lon="6.17413">
        <ele>1940.660889</ele>
        <time>2013-08-10T12:27:53Z</time>
      </trkpt>
      <trkpt lat="45.12041" lon="6.17404">
        <ele>1936.18042</ele>
        <time>2013-08-10T12:27:57Z</time>
      </trkpt>
      <trkpt lat="45.12027" lon="6.17366">
        <ele>1936.713379</ele>
        <time>2013-08-10T12:28:04Z</time>
      </trkpt>
      <trkpt lat="45.12003" lon="6.17359">
        <ele>1931.691284</ele>
        <time>2013-08-10T12:28:13Z</time>
      </trkpt>
      <trkpt lat="45.11997" lon="6.17363">
        <ele>1929.558472</ele>
        <time>2013-08-10T12:28:17Z</time>
      </trkpt>
      <trkpt lat="45.11995" lon="6.1735">
        <ele>1931.972778</ele>
        <time>2013-08-10T12:28:31Z</time>
      </trkpt>
      <trkpt lat="45.11984" lon="6.17353">
        <ele>1929.21936</ele>
        <time>2013-08-10T12:28:40Z</time>
      </trkpt>
      <trkpt lat="45.11959" lon="6.17338">
        <ele>1928.211304</ele>
        <time>2013-08-10T12:28:50Z</time>
      </trkpt>
      <trkpt lat="45.11892" lon="6.17323">
        <ele>1921.240967</ele>
        <time>2013-08-10T12:29:03Z</time>
      </trkpt>
      <trkpt lat="45.11836" lon="6.17302">
        <ele>1919.213379</ele>
        <time>2013-08-10T12:29:19Z</time>
      </trkpt>
      <trkpt lat="45.11823" lon="6.17306">
        <ele>1916.764038</ele>
        <time>2013-08-10T12:29:22Z</time>
      </trkpt>
      <trkpt lat="45.11756" lon="6.17293">
        <ele>1913.109985</ele>
        <time>2013-08-10T12:29:34Z</time>
      </trkpt>
      <trkpt lat="45.11723" lon="6.17275">
        <ele>1911.765015</ele>
        <time>2013-08-10T12:29:39Z</time>
      </trkpt>
      <trkpt lat="45.11693" lon="6.17269">
        <ele>1907.878906</ele>
        <time>2013-08-10T12:29:44Z</time>
      </trkpt>
      <trkpt lat="45.11673" lon="6.17256">
        <ele>1903.128906</ele>
        <time>2013-08-10T12:29:48Z</time>
      </trkpt>
      <trkpt lat="45.11612" lon="6.17236">
        <ele>1886.924072</ele>
        <time>2013-08-10T12:29:58Z</time>
      </trkpt>
      <trkpt lat="45.11591" lon="6.17207">
        <ele>1887.36499</ele>
        <time>2013-08-10T12:30:12Z</time>
      </trkpt>
      <trkpt lat="45.11578" lon="6.17209">
        <ele>1884.919067</ele>
        <time>2013-08-10T12:30:33Z</time>
      </trkpt>
      <trkpt lat="45.11515" lon="6.17172">
        <ele>1884.168701</ele>
        <time>2013-08-10T12:30:57Z</time>
      </trkpt>
      <trkpt lat="45.11494" lon="6.1715">
        <ele>1884.162476</ele>
        <time>2013-08-10T12:31:07Z</time>
      </trkpt>
      <trkpt lat="45.11461" lon="6.17143">
        <ele>1881.895386</ele>
        <time>2013-08-10T12:31:16Z</time>
      </trkpt>
      <trkpt lat="45.11445" lon="6.17128">
        <ele>1883.403931</ele>
        <time>2013-08-10T12:31:26Z</time>
      </trkpt>
      <trkpt lat="45.11353" lon="6.17095">
        <ele>1874.268066</ele>
        <time>2013-08-10T12:32:24Z</time>
      </trkpt>
      <trkpt lat="45.11318" lon="6.17075">
        <ele>1874.176025</ele>
        <time>2013-08-10T12:32:32Z</time>
      </trkpt>
      <trkpt lat="45.11274" lon="6.17064">
        <ele>1874.616089</ele>
        <time>2013-08-10T12:32:43Z</time>
      </trkpt>
      <trkpt lat="45.11225" lon="6.17029">
        <ele>1864.56189</ele>
        <time>2013-08-10T12:32:55Z</time>
      </trkpt>
      <trkpt lat="45.11202" lon="6.17002">
        <ele>1856.287231</ele>
        <time>2013-08-10T12:33:05Z</time>
      </trkpt>
      <trkpt lat="45.11205" lon="6.16961">
        <ele>1844.656494</ele>
        <time>2013-08-10T12:33:13Z</time>
      </trkpt>
      <trkpt lat="45.11196" lon="6.16911">
        <ele>1841.590942</ele>
        <time>2013-08-10T12:33:43Z</time>
      </trkpt>
      <trkpt lat="45.11179" lon="6.16913">
        <ele>1839.456299</ele>
        <time>2013-08-10T12:34:34Z</time>
      </trkpt>
      <trkpt lat="45.11155" lon="6.16879">
        <ele>1831.793335</ele>
        <time>2013-08-10T12:34:50Z</time>
      </trkpt>
      <trkpt lat="45.11134" lon="6.16865">
        <ele>1831.47583</ele>
        <time>2013-08-10T12:34:55Z</time>
      </trkpt>
      <trkpt lat="45.11134" lon="6.16852">
        <ele>1837.477539</ele>
        <time>2013-08-10T12:35:08Z</time>
      </trkpt>
      <trkpt lat="45.11119" lon="6.16846">
        <ele>1836.166748</ele>
        <time>2013-08-10T12:35:23Z</time>
      </trkpt>
      <trkpt lat="45.1111" lon="6.16854">
        <ele>1829.732178</ele>
        <time>2013-08-10T12:35:39Z</time>
      </trkpt>
      <trkpt lat="45.11061" lon="6.16856">
        <ele>1811.526001</ele>
        <time>2013-08-10T12:35:58Z</time>
      </trkpt>
      <trkpt lat="45.11038" lon="6.16864">
        <ele>1801.043457</ele>
        <time>2013-08-10T12:36:07Z</time>
      </trkpt>
      <trkpt lat="45.11044" lon="6.16882">
        <ele>1803.596069</ele>
        <time>2013-08-10T12:36:15Z</time>
      </trkpt>
      <trkpt lat="45.11028" lon="6.16899">
        <ele>1810.511108</ele>
        <time>2013-08-10T12:36:27Z</time>
      </trkpt>
      <trkpt lat="45.11015" lon="6.16886">
        <ele>1805.40686</ele>
        <time>2013-08-10T12:36:35Z</time>
      </trkpt>
      <trkpt lat="45.11017" lon="6.16905">
        <ele>1814.305786</ele>
        <time>2013-08-10T12:36:42Z</time>
      </trkpt>
      <trkpt lat="45.11007" lon="6.16899">
        <ele>1812.467896</ele>
        <time>2013-08-10T12:36:53Z</time>
      </trkpt>
      <trkpt lat="45.11005" lon="6.16905">
        <ele>1815.521606</ele>
        <time>2013-08-10T12:37:07Z</time>
      </trkpt>
      <trkpt lat="45.10995" lon="6.16889">
        <ele>1808.234863</ele>
        <time>2013-08-10T12:37:25Z</time>
      </trkpt>
      <trkpt lat="45.1099" lon="6.16892">
        <ele>1810.238159</ele>
        <time>2013-08-10T12:37:28Z</time>
      </trkpt>
      <trkpt lat="45.10989" lon="6.1691">
        <ele>1819.873413</ele>
        <time>2013-08-10T12:37:37Z</time>
      </trkpt>
      <trkpt lat="45.10978" lon="6.16901">
        <ele>1816.471191</ele>
        <time>2013-08-10T12:37:44Z</time>
      </trkpt>
      <trkpt lat="45.10972" lon="6.16881">
        <ele>1806.476318</ele>
        <time>2013-08-10T12:38:01Z</time>
      </trkpt>
      <trkpt lat="45.10963" lon="6.16874">
        <ele>1803.828369</ele>
        <time>2013-08-10T12:38:16Z</time>
      </trkpt>
      <trkpt lat="45.10966" lon="6.16869">
        <ele>1800.893799</ele>
        <time>2013-08-10T12:38:50Z</time>
      </trkpt>
      <trkpt lat="45.10967" lon="6.16872">
        <ele>1802.611084</ele>
        <time>2013-08-10T12:39:26Z</time>
      </trkpt>
      <trkpt lat="45.10966" lon="6.16868">
        <ele>1800.793457</ele>
        <time>2013-08-10T12:40:00Z</time>
      </trkpt>
      <trkpt lat="45.1097" lon="6.16878">
        <ele>1805.07666</ele>
        <time>2013-08-10T12:40:35Z</time>
      </trkpt>
      <trkpt lat="45.10955" lon="6.16882">
        <ele>1809.131104</ele>
        <time>2013-08-10T12:42:14Z</time>
      </trkpt>
      <trkpt lat="45.10912" lon="6.16859">
        <ele>1805.383911</ele>
        <time>2013-08-10T12:42:37Z</time>
      </trkpt>
      <trkpt lat="45.10894" lon="6.16866">
        <ele>1812.696289</ele>
        <time>2013-08-10T12:42:43Z</time>
      </trkpt>
      <trkpt lat="45.10867" lon="6.1686">
        <ele>1817.154175</ele>
        <time>2013-08-10T12:42:50Z</time>
      </trkpt>
      <trkpt lat="45.10837" lon="6.16816">
        <ele>1785.914429</ele>
        <time>2013-08-10T12:43:08Z</time>
      </trkpt>
      <trkpt lat="45.10813" lon="6.16796">
        <ele>1767.743896</ele>
        <time>2013-08-10T12:43:16Z</time>
      </trkpt>
      <trkpt lat="45.108" lon="6.16795">
        <ele>1761.235718</ele>
        <time>2013-08-10T12:43:22Z</time>
      </trkpt>
      <trkpt lat="45.10755" lon="6.16823">
        <ele>1746.839355</ele>
        <time>2013-08-10T12:43:46Z</time>
      </trkpt>
      <trkpt lat="45.10719" lon="6.16799">
        <ele>1713.859619</ele>
        <time>2013-08-10T12:44:02Z</time>
      </trkpt>
      <trkpt lat="45.10718" lon="6.16788">
        <ele>1708.491455</ele>
        <time>2013-08-10T12:44:13Z</time>
      </trkpt>
      <trkpt lat="45.10719" lon="6.16796">
        <ele>1712.495117</ele>
        <time>2013-08-10T12:44:32Z</time>
      </trkpt>
      <trkpt lat="45.10723" lon="6.16791">
        <ele>1711.763428</ele>
        <time>2013-08-10T12:45:15Z</time>
      </trkpt>
      <trkpt lat="45.10737" lon="6.16795">
        <ele>1722.853027</ele>
        <time>2013-08-10T12:45:36Z</time>
      </trkpt>
      <trkpt lat="45.1075" lon="6.16789">
        <ele>1729.289063</ele>
        <time>2013-08-10T12:45:43Z</time>
      </trkpt>
      <trkpt lat="45.10759" lon="6.16778">
        <ele>1731.200806</ele>
        <time>2013-08-10T12:45:57Z</time>
      </trkpt>
      <trkpt lat="45.10753" lon="6.16781">
        <ele>1728.431152</ele>
        <time>2013-08-10T12:46:03Z</time>
      </trkpt>
      <trkpt lat="45.10743" lon="6.16778">
        <ele>1720.009033</ele>
        <time>2013-08-10T12:46:07Z</time>
      </trkpt>
      <trkpt lat="45.10754" lon="6.16764">
        <ele>1721.956055</ele>
        <time>2013-08-10T12:46:20Z</time>
      </trkpt>
      <trkpt lat="45.10724" lon="6.16749">
        <ele>1697.82251</ele>
        <time>2013-08-10T12:46:33Z</time>
      </trkpt>
      <trkpt lat="45.10716" lon="6.16749">
        <ele>1695.872559</ele>
        <time>2013-08-10T12:46:38Z</time>
      </trkpt>
      <trkpt lat="45.10726" lon="6.1673">
        <ele>1691.965698</ele>
        <time>2013-08-10T12:46:46Z</time>
      </trkpt>
      <trkpt lat="45.10728" lon="6.16703">
        <ele>1698.367188</ele>
        <time>2013-08-10T12:47:40Z</time>
      </trkpt>
      <trkpt lat="45.10722" lon="6.16697">
        <ele>1699.706055</ele>
        <time>2013-08-10T12:47:58Z</time>
      </trkpt>
      <trkpt lat="45.10719" lon="6.16703">
        <ele>1697.170776</ele>
        <time>2013-08-10T12:48:22Z</time>
      </trkpt>
      <trkpt lat="45.10692" lon="6.16695">
        <ele>1696.72229</ele>
        <time>2013-08-10T12:49:28Z</time>
      </trkpt>
      <trkpt lat="45.10689" lon="6.16689">
        <ele>1698.625366</ele>
        <time>2013-08-10T12:49:41Z</time>
      </trkpt>
      <trkpt lat="45.10666" lon="6.16705">
        <ele>1686.873169</ele>
        <time>2013-08-10T12:49:52Z</time>
      </trkpt>
      <trkpt lat="45.10658" lon="6.16702">
        <ele>1685.840454</ele>
        <time>2013-08-10T12:50:02Z</time>
      </trkpt>
      <trkpt lat="45.10664" lon="6.16702">
        <ele>1687.547607</ele>
        <time>2013-08-10T12:50:53Z</time>
      </trkpt>
      <trkpt lat="45.10659" lon="6.16702">
        <ele>1686.321167</ele>
        <time>2013-08-10T12:51:19Z</time>
      </trkpt>
      <trkpt lat="45.10665" lon="6.16702">
        <ele>1687.810059</ele>
        <time>2013-08-10T12:53:01Z</time>
      </trkpt>
      <trkpt lat="45.1067" lon="6.16719">
        <ele>1682.234497</ele>
        <time>2013-08-10T12:57:02Z</time>
      </trkpt>
      <trkpt lat="45.10666" lon="6.16711">
        <ele>1684.701416</ele>
        <time>2013-08-10T12:58:45Z</time>
      </trkpt>
      <trkpt lat="45.10671" lon="6.16708">
        <ele>1687.023071</ele>
        <time>2013-08-10T12:59:00Z</time>
      </trkpt>
      <trkpt lat="45.1067" lon="6.16703">
        <ele>1688.408325</ele>
        <time>2013-08-10T12:59:29Z</time>
      </trkpt>
      <trkpt lat="45.10669" lon="6.1672">
        <ele>1681.65979</ele>
        <time>2013-08-10T13:00:18Z</time>
      </trkpt>
      <trkpt lat="45.1067" lon="6.16712">
        <ele>1685.376953</ele>
        <time>2013-08-10T13:00:46Z</time>
      </trkpt>
      <trkpt lat="45.10681" lon="6.16699">
        <ele>1692.661377</ele>
        <time>2013-08-10T13:01:34Z</time>
      </trkpt>
      <trkpt lat="45.10682" lon="6.16705">
        <ele>1690.580811</ele>
        <time>2013-08-10T13:01:58Z</time>
      </trkpt>
      <trkpt lat="45.10648" lon="6.16689">
        <ele>1687.751099</ele>
        <time>2013-08-10T13:02:24Z</time>
      </trkpt>
      <trkpt lat="45.10642" lon="6.16702">
        <ele>1681.895264</ele>
        <time>2013-08-10T13:02:41Z</time>
      </trkpt>
      <trkpt lat="45.10644" lon="6.16677">
        <ele>1690.116455</ele>
        <time>2013-08-10T13:02:59Z</time>
      </trkpt>
      <trkpt lat="45.10624" lon="6.16634">
        <ele>1692.449707</ele>
        <time>2013-08-10T13:03:27Z</time>
      </trkpt>
      <trkpt lat="45.10619" lon="6.16611">
        <ele>1694.112305</ele>
        <time>2013-08-10T13:03:44Z</time>
      </trkpt>
      <trkpt lat="45.106" lon="6.16564">
        <ele>1696.067749</ele>
        <time>2013-08-10T13:04:16Z</time>
      </trkpt>
      <trkpt lat="45.10603" lon="6.16563">
        <ele>1697.934814</ele>
        <time>2013-08-10T13:04:38Z</time>
      </trkpt>
      <trkpt lat="45.1065" lon="6.1671">
        <ele>1681.455566</ele>
        <time>2013-08-10T13:05:07Z</time>
      </trkpt>
      <trkpt lat="45.10642" lon="6.16721">
        <ele>1676.67981</ele>
        <time>2013-08-10T13:05:12Z</time>
      </trkpt>
      <trkpt lat="45.10638" lon="6.16715">
        <ele>1677.253296</ele>
        <time>2013-08-10T13:05:22Z</time>
      </trkpt>
      <trkpt lat="45.1064" lon="6.16708">
        <ele>1679.864502</ele>
        <time>2013-08-10T13:05:30Z</time>
      </trkpt>
      <trkpt lat="45.10637" lon="6.16722">
        <ele>1676.160156</ele>
        <time>2013-08-10T13:05:38Z</time>
      </trkpt>
      <trkpt lat="45.10648" lon="6.16741">
        <ele>1680.628784</ele>
        <time>2013-08-10T13:05:50Z</time>
      </trkpt>
      <trkpt lat="45.10645" lon="6.16736">
        <ele>1679.516724</ele>
        <time>2013-08-10T13:06:21Z</time>
      </trkpt>
      <trkpt lat="45.10647" lon="6.16738">
        <ele>1680.066895</ele>
        <time>2013-08-10T13:06:35Z</time>
      </trkpt>
      <trkpt lat="45.10638" lon="6.16735">
        <ele>1678.382446</ele>
        <time>2013-08-10T13:06:48Z</time>
      </trkpt>
      <trkpt lat="45.10652" lon="6.16753">
        <ele>1683.046875</ele>
        <time>2013-08-10T13:07:14Z</time>
      </trkpt>
      <trkpt lat="45.1062" lon="6.16753">
        <ele>1679.579956</ele>
        <time>2013-08-10T13:07:36Z</time>
      </trkpt>
      <trkpt lat="45.10595" lon="6.16738">
        <ele>1673.870728</ele>
        <time>2013-08-10T13:07:45Z</time>
      </trkpt>
      <trkpt lat="45.10589" lon="6.16743">
        <ele>1674.641846</ele>
        <time>2013-08-10T13:07:48Z</time>
      </trkpt>
      <trkpt lat="45.1059" lon="6.16736">
        <ele>1673.126465</ele>
        <time>2013-08-10T13:07:55Z</time>
      </trkpt>
      <trkpt lat="45.10576" lon="6.16731">
        <ele>1670.726318</ele>
        <time>2013-08-10T13:08:00Z</time>
      </trkpt>
      <trkpt lat="45.10567" lon="6.16733">
        <ele>1670.721069</ele>
        <time>2013-08-10T13:08:15Z</time>
      </trkpt>
      <trkpt lat="45.10569" lon="6.16735">
        <ele>1671.219604</ele>
        <time>2013-08-10T13:08:42Z</time>
      </trkpt>
      <trkpt lat="45.10555" lon="6.16719">
        <ele>1666.186401</ele>
        <time>2013-08-10T13:09:03Z</time>
      </trkpt>
      <trkpt lat="45.10533" lon="6.16672">
        <ele>1657.628784</ele>
        <time>2013-08-10T13:09:15Z</time>
      </trkpt>
      <trkpt lat="45.1049" lon="6.1662">
        <ele>1646.651123</ele>
        <time>2013-08-10T13:09:34Z</time>
      </trkpt>
      <trkpt lat="45.1042" lon="6.16568">
        <ele>1631.036377</ele>
        <time>2013-08-10T13:09:51Z</time>
      </trkpt>
      <trkpt lat="45.10395" lon="6.16536">
        <ele>1637.866333</ele>
        <time>2013-08-10T13:10:07Z</time>
      </trkpt>
      <trkpt lat="45.10351" lon="6.16534">
        <ele>1631.015259</ele>
        <time>2013-08-10T13:10:20Z</time>
      </trkpt>
      <trkpt lat="45.10323" lon="6.16527">
        <ele>1628.516479</ele>
        <time>2013-08-10T13:10:27Z</time>
      </trkpt>
      <trkpt lat="45.10293" lon="6.16506">
        <ele>1633.189575</ele>
        <time>2013-08-10T13:10:35Z</time>
      </trkpt>
      <trkpt lat="45.1025" lon="6.16516">
        <ele>1620.062378</ele>
        <time>2013-08-10T13:10:45Z</time>
      </trkpt>
      <trkpt lat="45.10187" lon="6.16484">
        <ele>1618.995972</ele>
        <time>2013-08-10T13:10:56Z</time>
      </trkpt>
      <trkpt lat="45.10149" lon="6.1647">
        <ele>1614.67749</ele>
        <time>2013-08-10T13:11:04Z</time>
      </trkpt>
      <trkpt lat="45.10124" lon="6.16456">
        <ele>1613.334717</ele>
        <time>2013-08-10T13:11:12Z</time>
      </trkpt>
      <trkpt lat="45.10091" lon="6.16457">
        <ele>1609.792725</ele>
        <time>2013-08-10T13:11:18Z</time>
      </trkpt>
      <trkpt lat="45.10069" lon="6.16464">
        <ele>1607.145508</ele>
        <time>2013-08-10T13:11:22Z</time>
      </trkpt>
      <trkpt lat="45.1003" lon="6.16486">
        <ele>1605.116577</ele>
        <time>2013-08-10T13:11:27Z</time>
      </trkpt>
      <trkpt lat="45.09977" lon="6.16504">
        <ele>1598.242554</ele>
        <time>2013-08-10T13:11:43Z</time>
      </trkpt>
      <trkpt lat="45.10004" lon="6.16474">
        <ele>1608.311279</ele>
        <time>2013-08-10T13:12:25Z</time>
      </trkpt>
      <trkpt lat="45.09992" lon="6.16482">
        <ele>1606.262451</ele>
        <time>2013-08-10T13:12:32Z</time>
      </trkpt>
      <trkpt lat="45.09958" lon="6.16479">
        <ele>1603.647705</ele>
        <time>2013-08-10T13:12:49Z</time>
      </trkpt>
      <trkpt lat="45.0994" lon="6.16483">
        <ele>1599.810059</ele>
        <time>2013-08-10T13:12:52Z</time>
      </trkpt>
      <trkpt lat="45.09907" lon="6.16472">
        <ele>1595.922363</ele>
        <time>2013-08-10T13:12:58Z</time>
      </trkpt>
      <trkpt lat="45.09841" lon="6.16419">
        <ele>1592.015381</ele>
        <time>2013-08-10T13:13:09Z</time>
      </trkpt>
      <trkpt lat="45.09755" lon="6.16327">
        <ele>1588.115723</ele>
        <time>2013-08-10T13:13:20Z</time>
      </trkpt>
      <trkpt lat="45.09698" lon="6.16247">
        <ele>1584.341309</ele>
        <time>2013-08-10T13:13:29Z</time>
      </trkpt>
      <trkpt lat="45.09691" lon="6.16253">
        <ele>1581.378784</ele>
        <time>2013-08-10T13:13:31Z</time>
      </trkpt>
      <trkpt lat="45.09691" lon="6.1626">
        <ele>1580.32373</ele>
        <time>2013-08-10T13:13:32Z</time>
      </trkpt>
      <trkpt lat="45.09713" lon="6.16296">
        <ele>1581.569092</ele>
        <time>2013-08-10T13:13:37Z</time>
      </trkpt>
      <trkpt lat="45.09743" lon="6.16367">
        <ele>1577.545898</ele>
        <time>2013-08-10T13:13:45Z</time>
      </trkpt>
      <trkpt lat="45.09753" lon="6.16404">
        <ele>1571.732422</ele>
        <time>2013-08-10T13:13:49Z</time>
      </trkpt>
      <trkpt lat="45.09764" lon="6.1643">
        <ele>1567.255737</ele>
        <time>2013-08-10T13:13:53Z</time>
      </trkpt>
      <trkpt lat="45.09762" lon="6.16435">
        <ele>1565.505737</ele>
        <time>2013-08-10T13:13:54Z</time>
      </trkpt>
      <trkpt lat="45.09753" lon="6.16432">
        <ele>1564.185059</ele>
        <time>2013-08-10T13:13:56Z</time>
      </trkpt>
      <trkpt lat="45.09731" lon="6.16389">
        <ele>1570.196655</ele>
        <time>2013-08-10T13:14:02Z</time>
      </trkpt>
      <trkpt lat="45.09719" lon="6.1638">
        <ele>1569.258789</ele>
        <time>2013-08-10T13:14:04Z</time>
      </trkpt>
      <trkpt lat="45.09674" lon="6.16404">
        <ele>1557.349731</ele>
        <time>2013-08-10T13:14:12Z</time>
      </trkpt>
      <trkpt lat="45.0966" lon="6.16403">
        <ele>1555.942505</ele>
        <time>2013-08-10T13:14:15Z</time>
      </trkpt>
      <trkpt lat="45.09637" lon="6.16369">
        <ele>1555.85376</ele>
        <time>2013-08-10T13:14:21Z</time>
      </trkpt>
      <trkpt lat="45.09585" lon="6.1633">
        <ele>1550.57373</ele>
        <time>2013-08-10T13:14:29Z</time>
      </trkpt>
      <trkpt lat="45.09568" lon="6.16324">
        <ele>1549.017456</ele>
        <time>2013-08-10T13:14:31Z</time>
      </trkpt>
      <trkpt lat="45.09463" lon="6.16309">
        <ele>1541.75</ele>
        <time>2013-08-10T13:14:44Z</time>
      </trkpt>
      <trkpt lat="45.09435" lon="6.16316">
        <ele>1538.175659</ele>
        <time>2013-08-10T13:14:48Z</time>
      </trkpt>
      <trkpt lat="45.09396" lon="6.16352">
        <ele>1531.453735</ele>
        <time>2013-08-10T13:14:54Z</time>
      </trkpt>
      <trkpt lat="45.09292" lon="6.16331">
        <ele>1516.510864</ele>
        <time>2013-08-10T13:15:06Z</time>
      </trkpt>
      <trkpt lat="45.09243" lon="6.16294">
        <ele>1514.163574</ele>
        <time>2013-08-10T13:15:13Z</time>
      </trkpt>
      <trkpt lat="45.09237" lon="6.16294">
        <ele>1513.31189</ele>
        <time>2013-08-10T13:15:14Z</time>
      </trkpt>
      <trkpt lat="45.09232" lon="6.16306">
        <ele>1510.439819</ele>
        <time>2013-08-10T13:15:16Z</time>
      </trkpt>
      <trkpt lat="45.09235" lon="6.16339">
        <ele>1506.253662</ele>
        <time>2013-08-10T13:15:20Z</time>
      </trkpt>
      <trkpt lat="45.09228" lon="6.16389">
        <ele>1498.829224</ele>
        <time>2013-08-10T13:15:25Z</time>
      </trkpt>
      <trkpt lat="45.0922" lon="6.16403">
        <ele>1496.488037</ele>
        <time>2013-08-10T13:15:27Z</time>
      </trkpt>
      <trkpt lat="45.092" lon="6.16403">
        <ele>1494.93811</ele>
        <time>2013-08-10T13:15:30Z</time>
      </trkpt>
      <trkpt lat="45.09168" lon="6.16375">
        <ele>1494.850952</ele>
        <time>2013-08-10T13:15:35Z</time>
      </trkpt>
      <trkpt lat="45.0909" lon="6.1632">
        <ele>1496.064331</ele>
        <time>2013-08-10T13:15:44Z</time>
      </trkpt>
      <trkpt lat="45.09068" lon="6.16318">
        <ele>1494.512207</ele>
        <time>2013-08-10T13:15:46Z</time>
      </trkpt>
      <trkpt lat="45.09037" lon="6.16354">
        <ele>1485.06543</ele>
        <time>2013-08-10T13:15:52Z</time>
      </trkpt>
      <trkpt lat="45.09022" lon="6.1636">
        <ele>1482.594727</ele>
        <time>2013-08-10T13:15:58Z</time>
      </trkpt>
      <trkpt lat="45.08998" lon="6.1633">
        <ele>1485.432251</ele>
        <time>2013-08-10T13:16:04Z</time>
      </trkpt>
      <trkpt lat="45.0896" lon="6.16314">
        <ele>1481.095337</ele>
        <time>2013-08-10T13:16:10Z</time>
      </trkpt>
      <trkpt lat="45.0889" lon="6.16251">
        <ele>1475.534668</ele>
        <time>2013-08-10T13:16:19Z</time>
      </trkpt>
      <trkpt lat="45.08835" lon="6.16184">
        <ele>1469.453247</ele>
        <time>2013-08-10T13:17:03Z</time>
      </trkpt>
      <trkpt lat="45.08796" lon="6.16153">
        <ele>1462.895264</ele>
        <time>2013-08-10T13:17:10Z</time>
      </trkpt>
      <trkpt lat="45.08747" lon="6.16131">
        <ele>1458.04126</ele>
        <time>2013-08-10T13:17:16Z</time>
      </trkpt>
      <trkpt lat="45.0869" lon="6.16118">
        <ele>1451.645264</ele>
        <time>2013-08-10T13:17:23Z</time>
      </trkpt>
      <trkpt lat="45.08671" lon="6.16119">
        <ele>1448.983154</ele>
        <time>2013-08-10T13:17:25Z</time>
      </trkpt>
      <trkpt lat="45.08635" lon="6.16138">
        <ele>1442.578003</ele>
        <time>2013-08-10T13:17:29Z</time>
      </trkpt>
      <trkpt lat="45.08595" lon="6.16117">
        <ele>1442.551758</ele>
        <time>2013-08-10T13:17:33Z</time>
      </trkpt>
      <trkpt lat="45.0854" lon="6.1611">
        <ele>1437.472168</ele>
        <time>2013-08-10T13:17:38Z</time>
      </trkpt>
      <trkpt lat="45.0843" lon="6.16129">
        <ele>1424.619995</ele>
        <time>2013-08-10T13:17:50Z</time>
      </trkpt>
      <trkpt lat="45.08397" lon="6.16123">
        <ele>1421.908813</ele>
        <time>2013-08-10T13:17:54Z</time>
      </trkpt>
      <trkpt lat="45.08364" lon="6.16103">
        <ele>1420.881714</ele>
        <time>2013-08-10T13:17:59Z</time>
      </trkpt>
      <trkpt lat="45.08332" lon="6.16072">
        <ele>1419.958008</ele>
        <time>2013-08-10T13:18:40Z</time>
      </trkpt>
      <trkpt lat="45.08336" lon="6.16072">
        <ele>1420.731689</ele>
        <time>2013-08-10T13:18:50Z</time>
      </trkpt>
      <trkpt lat="45.08298" lon="6.16037">
        <ele>1420.09314</ele>
        <time>2013-08-10T13:19:02Z</time>
      </trkpt>
      <trkpt lat="45.0827" lon="6.16029">
        <ele>1416.849365</ele>
        <time>2013-08-10T13:19:06Z</time>
      </trkpt>
      <trkpt lat="45.08215" lon="6.16027">
        <ele>1407.640137</ele>
        <time>2013-08-10T13:19:13Z</time>
      </trkpt>
      <trkpt lat="45.08178" lon="6.16002">
        <ele>1403.265015</ele>
        <time>2013-08-10T13:19:18Z</time>
      </trkpt>
      <trkpt lat="45.08135" lon="6.15939">
        <ele>1404.927979</ele>
        <time>2013-08-10T13:19:27Z</time>
      </trkpt>
      <trkpt lat="45.08127" lon="6.15941">
        <ele>1403.115723</ele>
        <time>2013-08-10T13:19:30Z</time>
      </trkpt>
      <trkpt lat="45.08125" lon="6.15948">
        <ele>1400.866333</ele>
        <time>2013-08-10T13:19:35Z</time>
      </trkpt>
      <trkpt lat="45.08142" lon="6.1597">
        <ele>1398.808838</ele>
        <time>2013-08-10T13:19:41Z</time>
      </trkpt>
      <trkpt lat="45.08176" lon="6.16062">
        <ele>1394.291748</ele>
        <time>2013-08-10T13:19:53Z</time>
      </trkpt>
      <trkpt lat="45.08195" lon="6.16092">
        <ele>1393.11084</ele>
        <time>2013-08-10T13:19:59Z</time>
      </trkpt>
      <trkpt lat="45.08222" lon="6.16113">
        <ele>1393.38147</ele>
        <time>2013-08-10T13:20:07Z</time>
      </trkpt>
      <trkpt lat="45.08243" lon="6.16137">
        <ele>1392.474976</ele>
        <time>2013-08-10T13:20:18Z</time>
      </trkpt>
      <trkpt lat="45.08237" lon="6.16143">
        <ele>1390.471069</ele>
        <time>2013-08-10T13:20:32Z</time>
      </trkpt>
      <trkpt lat="45.08158" lon="6.16079">
        <ele>1387.397583</ele>
        <time>2013-08-10T13:21:13Z</time>
      </trkpt>
      <trkpt lat="45.08065" lon="6.15978">
        <ele>1379.452759</ele>
        <time>2013-08-10T13:21:33Z</time>
      </trkpt>
      <trkpt lat="45.07964" lon="6.1589">
        <ele>1378.182373</ele>
        <time>2013-08-10T13:21:53Z</time>
      </trkpt>
      <trkpt lat="45.07911" lon="6.15868">
        <ele>1373.145874</ele>
        <time>2013-08-10T13:22:05Z</time>
      </trkpt>
      <trkpt lat="45.07825" lon="6.15803">
        <ele>1378.997559</ele>
        <time>2013-08-10T13:22:23Z</time>
      </trkpt>
      <trkpt lat="45.07809" lon="6.15798">
        <ele>1378.224976</ele>
        <time>2013-08-10T13:22:26Z</time>
      </trkpt>
      <trkpt lat="45.07704" lon="6.1579">
        <ele>1372.321899</ele>
        <time>2013-08-10T13:22:45Z</time>
      </trkpt>
      <trkpt lat="45.07689" lon="6.15794">
        <ele>1372.194092</ele>
        <time>2013-08-10T13:22:48Z</time>
      </trkpt>
      <trkpt lat="45.07648" lon="6.15825">
        <ele>1366.118042</ele>
        <time>2013-08-10T13:22:56Z</time>
      </trkpt>
      <trkpt lat="45.07614" lon="6.15834">
        <ele>1363.782837</ele>
        <time>2013-08-10T13:23:01Z</time>
      </trkpt>
      <trkpt lat="45.07535" lon="6.15805">
        <ele>1367.771729</ele>
        <time>2013-08-10T13:23:13Z</time>
      </trkpt>
      <trkpt lat="45.07474" lon="6.15812">
        <ele>1360.266113</ele>
        <time>2013-08-10T13:23:22Z</time>
      </trkpt>
      <trkpt lat="45.07461" lon="6.15807">
        <ele>1359.986938</ele>
        <time>2013-08-10T13:23:24Z</time>
      </trkpt>
      <trkpt lat="45.07413" lon="6.15758">
        <ele>1365.89502</ele>
        <time>2013-08-10T13:23:33Z</time>
      </trkpt>
      <trkpt lat="45.07389" lon="6.15744">
        <ele>1363.157471</ele>
        <time>2013-08-10T13:23:37Z</time>
      </trkpt>
      <trkpt lat="45.07336" lon="6.15692">
        <ele>1365.615112</ele>
        <time>2013-08-10T13:23:47Z</time>
      </trkpt>
      <trkpt lat="45.07254" lon="6.15639">
        <ele>1360.533691</ele>
        <time>2013-08-10T13:24:02Z</time>
      </trkpt>
      <trkpt lat="45.07234" lon="6.15632">
        <ele>1357.162476</ele>
        <time>2013-08-10T13:24:05Z</time>
      </trkpt>
      <trkpt lat="45.07179" lon="6.15583">
        <ele>1350.483398</ele>
        <time>2013-08-10T13:24:16Z</time>
      </trkpt>
      <trkpt lat="45.07149" lon="6.15542">
        <ele>1347.404419</ele>
        <time>2013-08-10T13:24:23Z</time>
      </trkpt>
      <trkpt lat="45.0714" lon="6.15518">
        <ele>1349.249512</ele>
        <time>2013-08-10T13:24:31Z</time>
      </trkpt>
      <trkpt lat="45.07119" lon="6.15509">
        <ele>1345.688721</ele>
        <time>2013-08-10T13:24:44Z</time>
      </trkpt>
      <trkpt lat="45.07112" lon="6.15512">
        <ele>1344.222778</ele>
        <time>2013-08-10T13:24:54Z</time>
      </trkpt>
      <trkpt lat="45.07104" lon="6.15528">
        <ele>1340.307861</ele>
        <time>2013-08-10T13:25:03Z</time>
      </trkpt>
      <trkpt lat="45.07119" lon="6.1555">
        <ele>1337.880981</ele>
        <time>2013-08-10T13:25:17Z</time>
      </trkpt>
      <trkpt lat="45.07117" lon="6.15557">
        <ele>1336.232422</ele>
        <time>2013-08-10T13:25:20Z</time>
      </trkpt>
      <trkpt lat="45.07123" lon="6.15567">
        <ele>1334.995117</ele>
        <time>2013-08-10T13:25:25Z</time>
      </trkpt>
      <trkpt lat="45.07126" lon="6.15584">
        <ele>1332.221924</ele>
        <time>2013-08-10T13:26:10Z</time>
      </trkpt>
      <trkpt lat="45.07089" lon="6.15594">
        <ele>1325.723389</ele>
        <time>2013-08-10T13:26:30Z</time>
      </trkpt>
      <trkpt lat="45.07082" lon="6.15603">
        <ele>1322.779175</ele>
        <time>2013-08-10T13:26:35Z</time>
      </trkpt>
      <trkpt lat="45.07069" lon="6.15604">
        <ele>1320.670654</ele>
        <time>2013-08-10T13:26:40Z</time>
      </trkpt>
      <trkpt lat="45.07058" lon="6.15616">
        <ele>1315.807373</ele>
        <time>2013-08-10T13:26:53Z</time>
      </trkpt>
      <trkpt lat="45.07075" lon="6.15625">
        <ele>1316.226196</ele>
        <time>2013-08-10T13:27:00Z</time>
      </trkpt>
      <trkpt lat="45.07078" lon="6.15631">
        <ele>1314.953247</ele>
        <time>2013-08-10T13:27:03Z</time>
      </trkpt>
      <trkpt lat="45.07072" lon="6.15643">
        <ele>1311.108521</ele>
        <time>2013-08-10T13:27:11Z</time>
      </trkpt>
      <trkpt lat="45.07057" lon="6.15653">
        <ele>1305.79126</ele>
        <time>2013-08-10T13:27:17Z</time>
      </trkpt>
      <trkpt lat="45.07037" lon="6.15654">
        <ele>1301.702148</ele>
        <time>2013-08-10T13:27:24Z</time>
      </trkpt>
      <trkpt lat="45.06998" lon="6.15674">
        <ele>1287.109985</ele>
        <time>2013-08-10T13:27:33Z</time>
      </trkpt>
      <trkpt lat="45.06943" lon="6.15649">
        <ele>1282.197388</ele>
        <time>2013-08-10T13:27:55Z</time>
      </trkpt>
      <trkpt lat="45.0693" lon="6.15652">
        <ele>1280.114136</ele>
        <time>2013-08-10T13:28:28Z</time>
      </trkpt>
      <trkpt lat="45.0691" lon="6.15638">
        <ele>1278.09668</ele>
        <time>2013-08-10T13:28:38Z</time>
      </trkpt>
      <trkpt lat="45.06897" lon="6.15637">
        <ele>1276.330811</ele>
        <time>2013-08-10T13:28:42Z</time>
      </trkpt>
      <trkpt lat="45.06883" lon="6.15624">
        <ele>1275.283936</ele>
        <time>2013-08-10T13:28:50Z</time>
      </trkpt>
      <trkpt lat="45.0686" lon="6.15611">
        <ele>1270.911865</ele>
        <time>2013-08-10T13:29:00Z</time>
      </trkpt>
      <trkpt lat="45.06842" lon="6.15581">
        <ele>1269.04541</ele>
        <time>2013-08-10T13:29:14Z</time>
      </trkpt>
      <trkpt lat="45.06886" lon="6.15638">
        <ele>1274.454712</ele>
        <time>2013-08-10T13:29:29Z</time>
      </trkpt>
      <trkpt lat="45.06894" lon="6.15643">
        <ele>1275.803223</ele>
        <time>2013-08-10T13:29:31Z</time>
      </trkpt>
      <trkpt lat="45.06913" lon="6.15671">
        <ele>1277.125366</ele>
        <time>2013-08-10T13:29:40Z</time>
      </trkpt>
      <trkpt lat="45.06907" lon="6.15702">
        <ele>1275.44812</ele>
        <time>2013-08-10T13:29:52Z</time>
      </trkpt>
      <trkpt lat="45.0691" lon="6.15695">
        <ele>1275.796265</ele>
        <time>2013-08-10T13:30:06Z</time>
      </trkpt>
      <trkpt lat="45.06906" lon="6.15697">
        <ele>1275.351318</ele>
        <time>2013-08-10T13:30:29Z</time>
      </trkpt>
      <trkpt lat="45.06909" lon="6.15693">
        <ele>1275.781128</ele>
        <time>2013-08-10T13:30:52Z</time>
      </trkpt>
      <trkpt lat="45.06902" lon="6.15704">
        <ele>1275.10791</ele>
        <time>2013-08-10T13:31:42Z</time>
      </trkpt>
      <trkpt lat="45.06908" lon="6.15695">
        <ele>1275.633179</ele>
        <time>2013-08-10T13:33:19Z</time>
      </trkpt>
      <trkpt lat="45.06907" lon="6.15713">
        <ele>1276.202515</ele>
        <time>2013-08-10T13:33:29Z</time>
      </trkpt>
      <trkpt lat="45.06901" lon="6.15729">
        <ele>1276.310425</ele>
        <time>2013-08-10T13:33:41Z</time>
      </trkpt>
      <trkpt lat="45.06909" lon="6.15715">
        <ele>1276.593384</ele>
        <time>2013-08-10T13:34:41Z</time>
      </trkpt>
      <trkpt lat="45.06903" lon="6.15733">
        <ele>1276.859375</ele>
        <time>2013-08-10T13:35:43Z</time>
      </trkpt>
      <trkpt lat="45.06903" lon="6.15775">
        <ele>1279.383423</ele>
        <time>2013-08-10T13:35:56Z</time>
      </trkpt>
      <trkpt lat="45.06926" lon="6.15811">
        <ele>1281.370361</ele>
        <time>2013-08-10T13:36:16Z</time>
      </trkpt>
      <trkpt lat="45.06936" lon="6.15818">
        <ele>1282.802002</ele>
        <time>2013-08-10T13:36:22Z</time>
      </trkpt>
      <trkpt lat="45.06948" lon="6.15839">
        <ele>1291.986816</ele>
        <time>2013-08-10T13:36:35Z</time>
      </trkpt>
      <trkpt lat="45.06943" lon="6.15848">
        <ele>1289.143555</ele>
        <time>2013-08-10T13:36:42Z</time>
      </trkpt>
      <trkpt lat="45.06918" lon="6.15847">
        <ele>1283.727051</ele>
        <time>2013-08-10T13:36:58Z</time>
      </trkpt>
      <trkpt lat="45.06881" lon="6.15831">
        <ele>1289.0448</ele>
        <time>2013-08-10T13:37:22Z</time>
      </trkpt>
      <trkpt lat="45.0686" lon="6.15808">
        <ele>1295.001953</ele>
        <time>2013-08-10T13:37:40Z</time>
      </trkpt>
      <trkpt lat="45.06849" lon="6.15778">
        <ele>1294.21521</ele>
        <time>2013-08-10T13:37:58Z</time>
      </trkpt>
      <trkpt lat="45.06842" lon="6.15723">
        <ele>1287.615967</ele>
        <time>2013-08-10T13:38:23Z</time>
      </trkpt>
      <trkpt lat="45.06825" lon="6.157">
        <ele>1293.880371</ele>
        <time>2013-08-10T13:38:40Z</time>
      </trkpt>
      <trkpt lat="45.0678" lon="6.1568">
        <ele>1311.254883</ele>
        <time>2013-08-10T13:39:11Z</time>
      </trkpt>
      <trkpt lat="45.06747" lon="6.15642">
        <ele>1308.488281</ele>
        <time>2013-08-10T13:39:44Z</time>
      </trkpt>
      <trkpt lat="45.06732" lon="6.15637">
        <ele>1310.022705</ele>
        <time>2013-08-10T13:39:55Z</time>
      </trkpt>
      <trkpt lat="45.06706" lon="6.15637">
        <ele>1315.242554</ele>
        <time>2013-08-10T13:40:09Z</time>
      </trkpt>
      <trkpt lat="45.06645" lon="6.15666">
        <ele>1331.334351</ele>
        <time>2013-08-10T13:40:48Z</time>
      </trkpt>
      <trkpt lat="45.06653" lon="6.15677">
        <ele>1336.995483</ele>
        <time>2013-08-10T13:41:00Z</time>
      </trkpt>
      <trkpt lat="45.06694" lon="6.15669">
        <ele>1330.524536</ele>
        <time>2013-08-10T13:41:31Z</time>
      </trkpt>
      <trkpt lat="45.06752" lon="6.15706">
        <ele>1336.815796</ele>
        <time>2013-08-10T13:42:14Z</time>
      </trkpt>
      <trkpt lat="45.06766" lon="6.15746">
        <ele>1345.512939</ele>
        <time>2013-08-10T13:42:38Z</time>
      </trkpt>
      <trkpt lat="45.06785" lon="6.15783">
        <ele>1341.0354</ele>
        <time>2013-08-10T13:43:04Z</time>
      </trkpt>
      <trkpt lat="45.06781" lon="6.15836">
        <ele>1353.742432</ele>
        <time>2013-08-10T13:43:35Z</time>
      </trkpt>
      <trkpt lat="45.06793" lon="6.15928">
        <ele>1366.225342</ele>
        <time>2013-08-10T13:44:17Z</time>
      </trkpt>
      <trkpt lat="45.06803" lon="6.15976">
        <ele>1376.790527</ele>
        <time>2013-08-10T13:44:40Z</time>
      </trkpt>
      <trkpt lat="45.06813" lon="6.15994">
        <ele>1379.753418</ele>
        <time>2013-08-10T13:44:57Z</time>
      </trkpt>
      <trkpt lat="45.06836" lon="6.16013">
        <ele>1378.972534</ele>
        <time>2013-08-10T13:45:13Z</time>
      </trkpt>
      <trkpt lat="45.0684" lon="6.1603">
        <ele>1382.138306</ele>
        <time>2013-08-10T13:45:22Z</time>
      </trkpt>
      <trkpt lat="45.06879" lon="6.16075">
        <ele>1377.830933</ele>
        <time>2013-08-10T13:46:02Z</time>
      </trkpt>
      <trkpt lat="45.06874" lon="6.16117">
        <ele>1384.88147</ele>
        <time>2013-08-10T13:46:16Z</time>
      </trkpt>
      <trkpt lat="45.06863" lon="6.16163">
        <ele>1393.387939</ele>
        <time>2013-08-10T13:46:31Z</time>
      </trkpt>
      <trkpt lat="45.06858" lon="6.16206">
        <ele>1396.056641</ele>
        <time>2013-08-10T13:46:47Z</time>
      </trkpt>
      <trkpt lat="45.06835" lon="6.16252">
        <ele>1409.464233</ele>
        <time>2013-08-10T13:47:04Z</time>
      </trkpt>
      <trkpt lat="45.06816" lon="6.16314">
        <ele>1421.629761</ele>
        <time>2013-08-10T13:47:34Z</time>
      </trkpt>
      <trkpt lat="45.06797" lon="6.16341">
        <ele>1433.552368</ele>
        <time>2013-08-10T13:47:46Z</time>
      </trkpt>
      <trkpt lat="45.0679" lon="6.16377">
        <ele>1433.972778</ele>
        <time>2013-08-10T13:47:57Z</time>
      </trkpt>
      <trkpt lat="45.0679" lon="6.1641">
        <ele>1427.915039</ele>
        <time>2013-08-10T13:48:11Z</time>
      </trkpt>
      <trkpt lat="45.06825" lon="6.16334">
        <ele>1414.104492</ele>
        <time>2013-08-10T13:48:27Z</time>
      </trkpt>
      <trkpt lat="45.06837" lon="6.16324">
        <ele>1407.322876</ele>
        <time>2013-08-10T13:48:42Z</time>
      </trkpt>
      <trkpt lat="45.06864" lon="6.16325">
        <ele>1389.02478</ele>
        <time>2013-08-10T13:49:53Z</time>
      </trkpt>
      <trkpt lat="45.0686" lon="6.16324">
        <ele>1391.338501</ele>
        <time>2013-08-10T13:50:28Z</time>
      </trkpt>
      <trkpt lat="45.06871" lon="6.16357">
        <ele>1384.960205</ele>
        <time>2013-08-10T13:50:44Z</time>
      </trkpt>
      <trkpt lat="45.06893" lon="6.16374">
        <ele>1393.376221</ele>
        <time>2013-08-10T13:51:01Z</time>
      </trkpt>
      <trkpt lat="45.06902" lon="6.16364">
        <ele>1394.441528</ele>
        <time>2013-08-10T13:51:08Z</time>
      </trkpt>
      <trkpt lat="45.06916" lon="6.16321">
        <ele>1386.505371</ele>
        <time>2013-08-10T13:51:31Z</time>
      </trkpt>
      <trkpt lat="45.06934" lon="6.16298">
        <ele>1391.830444</ele>
        <time>2013-08-10T13:51:50Z</time>
      </trkpt>
      <trkpt lat="45.06954" lon="6.1629">
        <ele>1403.038208</ele>
        <time>2013-08-10T13:52:05Z</time>
      </trkpt>
      <trkpt lat="45.07016" lon="6.16193">
        <ele>1414.486694</ele>
        <time>2013-08-10T13:53:14Z</time>
      </trkpt>
      <trkpt lat="45.07035" lon="6.16171">
        <ele>1419.826904</ele>
        <time>2013-08-10T13:53:33Z</time>
      </trkpt>
      <trkpt lat="45.0704" lon="6.16135">
        <ele>1418.802856</ele>
        <time>2013-08-10T13:53:52Z</time>
      </trkpt>
      <trkpt lat="45.07051" lon="6.16107">
        <ele>1420.348511</ele>
        <time>2013-08-10T13:54:09Z</time>
      </trkpt>
      <trkpt lat="45.07096" lon="6.16079">
        <ele>1428.828247</ele>
        <time>2013-08-10T13:54:47Z</time>
      </trkpt>
      <trkpt lat="45.07133" lon="6.1604">
        <ele>1427.980225</ele>
        <time>2013-08-10T13:55:21Z</time>
      </trkpt>
      <trkpt lat="45.07143" lon="6.16035">
        <ele>1428.184204</ele>
        <time>2013-08-10T13:55:30Z</time>
      </trkpt>
      <trkpt lat="45.07147" lon="6.16039">
        <ele>1429.98877</ele>
        <time>2013-08-10T13:55:33Z</time>
      </trkpt>
      <trkpt lat="45.07144" lon="6.16049">
        <ele>1432.651001</ele>
        <time>2013-08-10T13:55:39Z</time>
      </trkpt>
      <trkpt lat="45.07125" lon="6.16074">
        <ele>1435.674927</ele>
        <time>2013-08-10T13:55:56Z</time>
      </trkpt>
      <trkpt lat="45.07112" lon="6.16121">
        <ele>1440.036133</ele>
        <time>2013-08-10T13:56:21Z</time>
      </trkpt>
      <trkpt lat="45.07101" lon="6.16299">
        <ele>1455.524658</ele>
        <time>2013-08-10T13:57:52Z</time>
      </trkpt>
      <trkpt lat="45.07086" lon="6.16355">
        <ele>1455.958252</ele>
        <time>2013-08-10T13:58:25Z</time>
      </trkpt>
      <trkpt lat="45.07084" lon="6.1642">
        <ele>1453.908936</ele>
        <time>2013-08-10T13:59:01Z</time>
      </trkpt>
      <trkpt lat="45.07091" lon="6.16448">
        <ele>1456.611084</ele>
        <time>2013-08-10T13:59:20Z</time>
      </trkpt>
      <trkpt lat="45.07125" lon="6.165">
        <ele>1469.978027</ele>
        <time>2013-08-10T14:00:03Z</time>
      </trkpt>
      <trkpt lat="45.0714" lon="6.16533">
        <ele>1477.567261</ele>
        <time>2013-08-10T14:00:22Z</time>
      </trkpt>
      <trkpt lat="45.07139" lon="6.16551">
        <ele>1479.424438</ele>
        <time>2013-08-10T14:00:36Z</time>
      </trkpt>
      <trkpt lat="45.07117" lon="6.16605">
        <ele>1483.982178</ele>
        <time>2013-08-10T14:01:10Z</time>
      </trkpt>
      <trkpt lat="45.07081" lon="6.16648">
        <ele>1487.30896</ele>
        <time>2013-08-10T14:01:48Z</time>
      </trkpt>
      <trkpt lat="45.07066" lon="6.16674">
        <ele>1489.596558</ele>
        <time>2013-08-10T14:02:07Z</time>
      </trkpt>
      <trkpt lat="45.0702" lon="6.16844">
        <ele>1504.13623</ele>
        <time>2013-08-10T14:03:43Z</time>
      </trkpt>
      <trkpt lat="45.07021" lon="6.16871">
        <ele>1506.94812</ele>
        <time>2013-08-10T14:03:57Z</time>
      </trkpt>
      <trkpt lat="45.07041" lon="6.16859">
        <ele>1510.110596</ele>
        <time>2013-08-10T14:04:14Z</time>
      </trkpt>
      <trkpt lat="45.07063" lon="6.16837">
        <ele>1510.777466</ele>
        <time>2013-08-10T14:04:33Z</time>
      </trkpt>
      <trkpt lat="45.07086" lon="6.16824">
        <ele>1512.953125</ele>
        <time>2013-08-10T14:04:51Z</time>
      </trkpt>
      <trkpt lat="45.07158" lon="6.16811">
        <ele>1523.967163</ele>
        <time>2013-08-10T14:05:42Z</time>
      </trkpt>
      <trkpt lat="45.07203" lon="6.16788">
        <ele>1529.533325</ele>
        <time>2013-08-10T14:06:18Z</time>
      </trkpt>
      <trkpt lat="45.07225" lon="6.16765">
        <ele>1529.824585</ele>
        <time>2013-08-10T14:06:37Z</time>
      </trkpt>
      <trkpt lat="45.07235" lon="6.16772">
        <ele>1533.850464</ele>
        <time>2013-08-10T14:06:46Z</time>
      </trkpt>
      <trkpt lat="45.07194" lon="6.1684">
        <ele>1537.733887</ele>
        <time>2013-08-10T14:07:29Z</time>
      </trkpt>
      <trkpt lat="45.07186" lon="6.16864">
        <ele>1540.049927</ele>
        <time>2013-08-10T14:07:43Z</time>
      </trkpt>
      <trkpt lat="45.07177" lon="6.16876">
        <ele>1539.420044</ele>
        <time>2013-08-10T14:07:53Z</time>
      </trkpt>
      <trkpt lat="45.07163" lon="6.1691">
        <ele>1540.579956</ele>
        <time>2013-08-10T14:08:08Z</time>
      </trkpt>
      <trkpt lat="45.07152" lon="6.16987">
        <ele>1542.873779</ele>
        <time>2013-08-10T14:08:34Z</time>
      </trkpt>
      <trkpt lat="45.07155" lon="6.17032">
        <ele>1542.983398</ele>
        <time>2013-08-10T14:08:48Z</time>
      </trkpt>
      <trkpt lat="45.07167" lon="6.17065">
        <ele>1545.484131</ele>
        <time>2013-08-10T14:09:00Z</time>
      </trkpt>
      <trkpt lat="45.072" lon="6.17222">
        <ele>1545.255615</ele>
        <time>2013-08-10T14:09:41Z</time>
      </trkpt>
      <trkpt lat="45.0724" lon="6.17306">
        <ele>1548.906372</ele>
        <time>2013-08-10T14:10:10Z</time>
      </trkpt>
      <trkpt lat="45.07254" lon="6.17347">
        <ele>1549.826416</ele>
        <time>2013-08-10T14:10:27Z</time>
      </trkpt>
      <trkpt lat="45.07278" lon="6.17387">
        <ele>1555.110352</ele>
        <time>2013-08-10T14:10:46Z</time>
      </trkpt>
      <trkpt lat="45.07313" lon="6.17463">
        <ele>1558.279053</ele>
        <time>2013-08-10T14:11:17Z</time>
      </trkpt>
      <trkpt lat="45.07309" lon="6.17464">
        <ele>1557.117188</ele>
        <time>2013-08-10T14:13:30Z</time>
      </trkpt>
      <trkpt lat="45.07313" lon="6.17464">
        <ele>1558.206665</ele>
        <time>2013-08-10T14:15:28Z</time>
      </trkpt>
      <trkpt lat="45.07308" lon="6.17463">
        <ele>1557.072021</ele>
        <time>2013-08-10T14:16:59Z</time>
      </trkpt>
      <trkpt lat="45.07313" lon="6.17461">
        <ele>1558.616577</ele>
        <time>2013-08-10T14:19:31Z</time>
      </trkpt>
      <trkpt lat="45.07309" lon="6.1746">
        <ele>1557.517944</ele>
        <time>2013-08-10T14:20:09Z</time>
      </trkpt>
      <trkpt lat="45.07312" lon="6.17463">
        <ele>1558.116821</ele>
        <time>2013-08-10T14:21:25Z</time>
      </trkpt>
      <trkpt lat="45.0731" lon="6.17459">
        <ele>1557.950684</ele>
        <time>2013-08-10T14:22:16Z</time>
      </trkpt>
    </trkseg>
  </trk>
</gpx>